<?xml version="1.0" encoding="UTF-8" standalone="no" ?>
<gpx xmlns="http://www.topografix.com/GPX/1/1" xmlns:xsi="http://www.w3.org/2001/XMLSchema-instance" xsi:schemaLocation="http://www.topografix.com/GPX/1/1 http://www.topografix.com/GPX/1/1/gpx.xsd" version="1.1" creator="VisuGPX - https://www.visugpx.com">
  <metadata>
    <name>Grimone, Gorges des Gats</name>
    <desc><![CDATA[Ne pas passer le pont sur le Rio Sourd (14km) mais continuer tout droit sur une dizaine de mètres puis chercher le chemin sur la gauche. La descente de Serre la Souche est très ludique (20km), celle sur le pont romain de Vachères est un peu plus technique (29km).]]></desc>
  </metadata>
  <trk>
    <name><![CDATA[26 Gorges des Gats]]></name>
    <trkseg>
      <trkpt lat="44.69628" lon="5.63775">
        <ele>1124.1</ele>
        <time>2011-06-08T09:26:55Z</time>
      </trkpt>
      <trkpt lat="44.69633" lon="5.63772">
        <ele>1122.9</ele>
        <time>2011-06-08T09:27:27Z</time>
      </trkpt>
      <trkpt lat="44.69568" lon="5.63535">
        <ele>1119.9</ele>
        <time>2011-06-08T09:28:15Z</time>
      </trkpt>
      <trkpt lat="44.69573" lon="5.63511">
        <ele>1120</ele>
        <time>2011-06-08T09:28:19Z</time>
      </trkpt>
      <trkpt lat="44.69635" lon="5.6345">
        <ele>1115.2</ele>
        <time>2011-06-08T09:28:31Z</time>
      </trkpt>
      <trkpt lat="44.69646" lon="5.63413">
        <ele>1112.5</ele>
        <time>2011-06-08T09:28:35Z</time>
      </trkpt>
      <trkpt lat="44.69628" lon="5.63293">
        <ele>1106.3</ele>
        <time>2011-06-08T09:28:46Z</time>
      </trkpt>
      <trkpt lat="44.69648" lon="5.63173">
        <ele>1099.5</ele>
        <time>2011-06-08T09:28:56Z</time>
      </trkpt>
      <trkpt lat="44.69653" lon="5.63081">
        <ele>1094.5</ele>
        <time>2011-06-08T09:29:04Z</time>
      </trkpt>
      <trkpt lat="44.69652" lon="5.63072">
        <ele>1093.3</ele>
        <time>2011-06-08T09:29:05Z</time>
      </trkpt>
      <trkpt lat="44.69638" lon="5.63058">
        <ele>1091.3</ele>
        <time>2011-06-08T09:29:08Z</time>
      </trkpt>
      <trkpt lat="44.69611" lon="5.63061">
        <ele>1089.9</ele>
        <time>2011-06-08T09:29:12Z</time>
      </trkpt>
      <trkpt lat="44.69596" lon="5.63053">
        <ele>1088.7</ele>
        <time>2011-06-08T09:29:14Z</time>
      </trkpt>
      <trkpt lat="44.69559" lon="5.62991">
        <ele>1084.7</ele>
        <time>2011-06-08T09:29:21Z</time>
      </trkpt>
      <trkpt lat="44.69551" lon="5.6297">
        <ele>1084.4</ele>
        <time>2011-06-08T09:29:23Z</time>
      </trkpt>
      <trkpt lat="44.69598" lon="5.62713">
        <ele>1069.4</ele>
        <time>2011-06-08T09:29:43Z</time>
      </trkpt>
      <trkpt lat="44.69635" lon="5.6266">
        <ele>1066</ele>
        <time>2011-06-08T09:29:49Z</time>
      </trkpt>
      <trkpt lat="44.69639" lon="5.62638">
        <ele>1065</ele>
        <time>2011-06-08T09:29:51Z</time>
      </trkpt>
      <trkpt lat="44.69632" lon="5.6245">
        <ele>1056.6</ele>
        <time>2011-06-08T09:30:06Z</time>
      </trkpt>
      <trkpt lat="44.69629" lon="5.62439">
        <ele>1056.2</ele>
        <time>2011-06-08T09:30:07Z</time>
      </trkpt>
      <trkpt lat="44.69574" lon="5.62371">
        <ele>1052.4</ele>
        <time>2011-06-08T09:30:15Z</time>
      </trkpt>
      <trkpt lat="44.69553" lon="5.6236">
        <ele>1050.7</ele>
        <time>2011-06-08T09:30:18Z</time>
      </trkpt>
      <trkpt lat="44.69557" lon="5.62324">
        <ele>1047.1</ele>
        <time>2011-06-08T09:30:23Z</time>
      </trkpt>
      <trkpt lat="44.69565" lon="5.62274">
        <ele>1044.5</ele>
        <time>2011-06-08T09:30:28Z</time>
      </trkpt>
      <trkpt lat="44.69618" lon="5.62164">
        <ele>1038.4</ele>
        <time>2011-06-08T09:30:41Z</time>
      </trkpt>
      <trkpt lat="44.69747" lon="5.61999">
        <ele>1027.4</ele>
        <time>2011-06-08T09:31:00Z</time>
      </trkpt>
      <trkpt lat="44.69764" lon="5.61944">
        <ele>1023.5</ele>
        <time>2011-06-08T09:31:05Z</time>
      </trkpt>
      <trkpt lat="44.69779" lon="5.61921">
        <ele>1021.9</ele>
        <time>2011-06-08T09:31:08Z</time>
      </trkpt>
      <trkpt lat="44.69966" lon="5.6179">
        <ele>1006.7</ele>
        <time>2011-06-08T09:31:32Z</time>
      </trkpt>
      <trkpt lat="44.70072" lon="5.61792">
        <ele>999.8</ele>
        <time>2011-06-08T09:31:44Z</time>
      </trkpt>
      <trkpt lat="44.70083" lon="5.61801">
        <ele>998.6</ele>
        <time>2011-06-08T09:31:46Z</time>
      </trkpt>
      <trkpt lat="44.70115" lon="5.61868">
        <ele>995</ele>
        <time>2011-06-08T09:31:54Z</time>
      </trkpt>
      <trkpt lat="44.70141" lon="5.61868">
        <ele>992.6</ele>
        <time>2011-06-08T09:31:58Z</time>
      </trkpt>
      <trkpt lat="44.70153" lon="5.61842">
        <ele>992.9</ele>
        <time>2011-06-08T09:32:01Z</time>
      </trkpt>
      <trkpt lat="44.70154" lon="5.61819">
        <ele>991.9</ele>
        <time>2011-06-08T09:32:03Z</time>
      </trkpt>
      <trkpt lat="44.70119" lon="5.61717">
        <ele>986.9</ele>
        <time>2011-06-08T09:32:12Z</time>
      </trkpt>
      <trkpt lat="44.701" lon="5.61688">
        <ele>983.8</ele>
        <time>2011-06-08T09:32:15Z</time>
      </trkpt>
      <trkpt lat="44.70074" lon="5.61679">
        <ele>981.3</ele>
        <time>2011-06-08T09:32:18Z</time>
      </trkpt>
      <trkpt lat="44.70035" lon="5.61693">
        <ele>979.5</ele>
        <time>2011-06-08T09:32:22Z</time>
      </trkpt>
      <trkpt lat="44.69972" lon="5.61669">
        <ele>975.6</ele>
        <time>2011-06-08T09:32:28Z</time>
      </trkpt>
      <trkpt lat="44.69742" lon="5.61631">
        <ele>958.9</ele>
        <time>2011-06-08T09:32:48Z</time>
      </trkpt>
      <trkpt lat="44.69712" lon="5.61595">
        <ele>956.4</ele>
        <time>2011-06-08T09:32:52Z</time>
      </trkpt>
      <trkpt lat="44.69636" lon="5.61349">
        <ele>943.8</ele>
        <time>2011-06-08T09:33:10Z</time>
      </trkpt>
      <trkpt lat="44.69612" lon="5.61317">
        <ele>941.5</ele>
        <time>2011-06-08T09:33:13Z</time>
      </trkpt>
      <trkpt lat="44.69515" lon="5.61254">
        <ele>933.4</ele>
        <time>2011-06-08T09:33:23Z</time>
      </trkpt>
      <trkpt lat="44.69501" lon="5.61232">
        <ele>931.6</ele>
        <time>2011-06-08T09:33:25Z</time>
      </trkpt>
      <trkpt lat="44.69424" lon="5.60993">
        <ele>920.2</ele>
        <time>2011-06-08T09:33:43Z</time>
      </trkpt>
      <trkpt lat="44.69428" lon="5.60726">
        <ele>912.8</ele>
        <time>2011-06-08T09:34:02Z</time>
      </trkpt>
      <trkpt lat="44.69422" lon="5.60702">
        <ele>912.6</ele>
        <time>2011-06-08T09:34:04Z</time>
      </trkpt>
      <trkpt lat="44.69355" lon="5.60578">
        <ele>909.8</ele>
        <time>2011-06-08T09:34:17Z</time>
      </trkpt>
      <trkpt lat="44.69341" lon="5.60385">
        <ele>905.2</ele>
        <time>2011-06-08T09:34:33Z</time>
      </trkpt>
      <trkpt lat="44.69316" lon="5.603">
        <ele>903.6</ele>
        <time>2011-06-08T09:34:41Z</time>
      </trkpt>
      <trkpt lat="44.69318" lon="5.60239">
        <ele>902.5</ele>
        <time>2011-06-08T09:34:47Z</time>
      </trkpt>
      <trkpt lat="44.69316" lon="5.6023">
        <ele>902.7</ele>
        <time>2011-06-08T09:34:48Z</time>
      </trkpt>
      <trkpt lat="44.69289" lon="5.60183">
        <ele>901.5</ele>
        <time>2011-06-08T09:34:57Z</time>
      </trkpt>
      <trkpt lat="44.69278" lon="5.60148">
        <ele>904.4</ele>
        <time>2011-06-08T09:35:11Z</time>
      </trkpt>
      <trkpt lat="44.69274" lon="5.60098">
        <ele>907.3</ele>
        <time>2011-06-08T09:35:30Z</time>
      </trkpt>
      <trkpt lat="44.69277" lon="5.6008">
        <ele>909.4</ele>
        <time>2011-06-08T09:35:38Z</time>
      </trkpt>
      <trkpt lat="44.69286" lon="5.60045">
        <ele>912.4</ele>
        <time>2011-06-08T09:35:56Z</time>
      </trkpt>
      <trkpt lat="44.69299" lon="5.60015">
        <ele>916.4</ele>
        <time>2011-06-08T09:36:19Z</time>
      </trkpt>
      <trkpt lat="44.69286" lon="5.60038">
        <ele>915.3</ele>
        <time>2011-06-08T09:38:38Z</time>
      </trkpt>
      <trkpt lat="44.69274" lon="5.60072">
        <ele>909.2</ele>
        <time>2011-06-08T09:38:59Z</time>
      </trkpt>
      <trkpt lat="44.69268" lon="5.60015">
        <ele>907.1</ele>
        <time>2011-06-08T09:39:19Z</time>
      </trkpt>
      <trkpt lat="44.69249" lon="5.59995">
        <ele>899.4</ele>
        <time>2011-06-08T09:39:49Z</time>
      </trkpt>
      <trkpt lat="44.69238" lon="5.5994">
        <ele>892.1</ele>
        <time>2011-06-08T09:40:09Z</time>
      </trkpt>
      <trkpt lat="44.69227" lon="5.59927">
        <ele>891.9</ele>
        <time>2011-06-08T09:40:19Z</time>
      </trkpt>
      <trkpt lat="44.69173" lon="5.5992">
        <ele>891.6</ele>
        <time>2011-06-08T09:40:39Z</time>
      </trkpt>
      <trkpt lat="44.69167" lon="5.59909">
        <ele>892</ele>
        <time>2011-06-08T09:40:42Z</time>
      </trkpt>
      <trkpt lat="44.69164" lon="5.5987">
        <ele>893</ele>
        <time>2011-06-08T09:40:50Z</time>
      </trkpt>
      <trkpt lat="44.6914" lon="5.59794">
        <ele>893.2</ele>
        <time>2011-06-08T09:41:12Z</time>
      </trkpt>
      <trkpt lat="44.69108" lon="5.59694">
        <ele>894.3</ele>
        <time>2011-06-08T09:41:38Z</time>
      </trkpt>
      <trkpt lat="44.69037" lon="5.5958">
        <ele>896.2</ele>
        <time>2011-06-08T09:42:10Z</time>
      </trkpt>
      <trkpt lat="44.69034" lon="5.59578">
        <ele>896.5</ele>
        <time>2011-06-08T09:42:11Z</time>
      </trkpt>
      <trkpt lat="44.68906" lon="5.59553">
        <ele>898.1</ele>
        <time>2011-06-08T09:42:46Z</time>
      </trkpt>
      <trkpt lat="44.68894" lon="5.59548">
        <ele>898</ele>
        <time>2011-06-08T09:42:49Z</time>
      </trkpt>
      <trkpt lat="44.68857" lon="5.59503">
        <ele>897.8</ele>
        <time>2011-06-08T09:43:02Z</time>
      </trkpt>
      <trkpt lat="44.68841" lon="5.59502">
        <ele>898</ele>
        <time>2011-06-08T09:43:06Z</time>
      </trkpt>
      <trkpt lat="44.68812" lon="5.59517">
        <ele>899.3</ele>
        <time>2011-06-08T09:43:14Z</time>
      </trkpt>
      <trkpt lat="44.68775" lon="5.59498">
        <ele>900.8</ele>
        <time>2011-06-08T09:43:24Z</time>
      </trkpt>
      <trkpt lat="44.68763" lon="5.59476">
        <ele>900.7</ele>
        <time>2011-06-08T09:43:29Z</time>
      </trkpt>
      <trkpt lat="44.6875" lon="5.59425">
        <ele>900.3</ele>
        <time>2011-06-08T09:43:38Z</time>
      </trkpt>
      <trkpt lat="44.68728" lon="5.59389">
        <ele>901.5</ele>
        <time>2011-06-08T09:43:46Z</time>
      </trkpt>
      <trkpt lat="44.6871" lon="5.59374">
        <ele>901.9</ele>
        <time>2011-06-08T09:43:51Z</time>
      </trkpt>
      <trkpt lat="44.68689" lon="5.59375">
        <ele>901.8</ele>
        <time>2011-06-08T09:43:56Z</time>
      </trkpt>
      <trkpt lat="44.68667" lon="5.59392">
        <ele>902</ele>
        <time>2011-06-08T09:44:02Z</time>
      </trkpt>
      <trkpt lat="44.68652" lon="5.59387">
        <ele>903.4</ele>
        <time>2011-06-08T09:44:06Z</time>
      </trkpt>
      <trkpt lat="44.68649" lon="5.5936">
        <ele>903.8</ele>
        <time>2011-06-08T09:44:12Z</time>
      </trkpt>
      <trkpt lat="44.68704" lon="5.5926">
        <ele>904</ele>
        <time>2011-06-08T09:44:35Z</time>
      </trkpt>
      <trkpt lat="44.68704" lon="5.59243">
        <ele>905</ele>
        <time>2011-06-08T09:44:38Z</time>
      </trkpt>
      <trkpt lat="44.68698" lon="5.5921">
        <ele>905.8</ele>
        <time>2011-06-08T09:44:44Z</time>
      </trkpt>
      <trkpt lat="44.68712" lon="5.59123">
        <ele>907</ele>
        <time>2011-06-08T09:45:00Z</time>
      </trkpt>
      <trkpt lat="44.68707" lon="5.59101">
        <ele>906.7</ele>
        <time>2011-06-08T09:45:04Z</time>
      </trkpt>
      <trkpt lat="44.68631" lon="5.58954">
        <ele>910.3</ele>
        <time>2011-06-08T09:45:39Z</time>
      </trkpt>
      <trkpt lat="44.68629" lon="5.58933">
        <ele>910.9</ele>
        <time>2011-06-08T09:45:44Z</time>
      </trkpt>
      <trkpt lat="44.68636" lon="5.58918">
        <ele>911.5</ele>
        <time>2011-06-08T09:45:49Z</time>
      </trkpt>
      <trkpt lat="44.68644" lon="5.58916">
        <ele>912.4</ele>
        <time>2011-06-08T09:45:53Z</time>
      </trkpt>
      <trkpt lat="44.68688" lon="5.58924">
        <ele>915.4</ele>
        <time>2011-06-08T09:46:10Z</time>
      </trkpt>
      <trkpt lat="44.68708" lon="5.58911">
        <ele>915.7</ele>
        <time>2011-06-08T09:46:17Z</time>
      </trkpt>
      <trkpt lat="44.68729" lon="5.58867">
        <ele>917.2</ele>
        <time>2011-06-08T09:46:29Z</time>
      </trkpt>
      <trkpt lat="44.68729" lon="5.58821">
        <ele>918.3</ele>
        <time>2011-06-08T09:46:39Z</time>
      </trkpt>
      <trkpt lat="44.68716" lon="5.58774">
        <ele>919.7</ele>
        <time>2011-06-08T09:46:50Z</time>
      </trkpt>
      <trkpt lat="44.68724" lon="5.58767">
        <ele>920.2</ele>
        <time>2011-06-08T09:46:54Z</time>
      </trkpt>
      <trkpt lat="44.68765" lon="5.58795">
        <ele>922.6</ele>
        <time>2011-06-08T09:47:08Z</time>
      </trkpt>
      <trkpt lat="44.68791" lon="5.58781">
        <ele>923.3</ele>
        <time>2011-06-08T09:47:16Z</time>
      </trkpt>
      <trkpt lat="44.68801" lon="5.58744">
        <ele>923.1</ele>
        <time>2011-06-08T09:47:23Z</time>
      </trkpt>
      <trkpt lat="44.68798" lon="5.58694">
        <ele>921.5</ele>
        <time>2011-06-08T09:47:32Z</time>
      </trkpt>
      <trkpt lat="44.68816" lon="5.5869">
        <ele>919.3</ele>
        <time>2011-06-08T09:47:41Z</time>
      </trkpt>
      <trkpt lat="44.68829" lon="5.58684">
        <ele>918.5</ele>
        <time>2011-06-08T09:48:04Z</time>
      </trkpt>
      <trkpt lat="44.68875" lon="5.5863">
        <ele>916.4</ele>
        <time>2011-06-08T09:48:18Z</time>
      </trkpt>
      <trkpt lat="44.68925" lon="5.58636">
        <ele>913.6</ele>
        <time>2011-06-08T09:48:26Z</time>
      </trkpt>
      <trkpt lat="44.68932" lon="5.58635">
        <ele>912.6</ele>
        <time>2011-06-08T09:48:27Z</time>
      </trkpt>
      <trkpt lat="44.68988" lon="5.586">
        <ele>908.8</ele>
        <time>2011-06-08T09:48:35Z</time>
      </trkpt>
      <trkpt lat="44.69003" lon="5.58596">
        <ele>907.4</ele>
        <time>2011-06-08T09:48:37Z</time>
      </trkpt>
      <trkpt lat="44.69026" lon="5.58604">
        <ele>905.3</ele>
        <time>2011-06-08T09:48:40Z</time>
      </trkpt>
      <trkpt lat="44.69052" lon="5.58643">
        <ele>903</ele>
        <time>2011-06-08T09:48:45Z</time>
      </trkpt>
      <trkpt lat="44.69082" lon="5.5866">
        <ele>900.4</ele>
        <time>2011-06-08T09:48:49Z</time>
      </trkpt>
      <trkpt lat="44.69218" lon="5.58789">
        <ele>889</ele>
        <time>2011-06-08T09:49:10Z</time>
      </trkpt>
      <trkpt lat="44.69343" lon="5.5882">
        <ele>881.8</ele>
        <time>2011-06-08T09:49:24Z</time>
      </trkpt>
      <trkpt lat="44.69352" lon="5.58818">
        <ele>881.1</ele>
        <time>2011-06-08T09:49:25Z</time>
      </trkpt>
      <trkpt lat="44.69414" lon="5.58777">
        <ele>877</ele>
        <time>2011-06-08T09:49:32Z</time>
      </trkpt>
      <trkpt lat="44.69499" lon="5.58763">
        <ele>870.5</ele>
        <time>2011-06-08T09:49:41Z</time>
      </trkpt>
      <trkpt lat="44.69515" lon="5.58742">
        <ele>869</ele>
        <time>2011-06-08T09:49:44Z</time>
      </trkpt>
      <trkpt lat="44.69525" lon="5.58708">
        <ele>867.1</ele>
        <time>2011-06-08T09:49:48Z</time>
      </trkpt>
      <trkpt lat="44.69574" lon="5.58677">
        <ele>863.6</ele>
        <time>2011-06-08T09:49:57Z</time>
      </trkpt>
      <trkpt lat="44.69571" lon="5.58665">
        <ele>862.8</ele>
        <time>2011-06-08T09:50:02Z</time>
      </trkpt>
      <trkpt lat="44.69537" lon="5.58682">
        <ele>859.4</ele>
        <time>2011-06-08T09:50:10Z</time>
      </trkpt>
      <trkpt lat="44.69526" lon="5.58683">
        <ele>859</ele>
        <time>2011-06-08T09:50:12Z</time>
      </trkpt>
      <trkpt lat="44.69461" lon="5.58663">
        <ele>855.4</ele>
        <time>2011-06-08T09:50:23Z</time>
      </trkpt>
      <trkpt lat="44.69393" lon="5.5862">
        <ele>849.6</ele>
        <time>2011-06-08T09:50:34Z</time>
      </trkpt>
      <trkpt lat="44.69396" lon="5.58606">
        <ele>847.8</ele>
        <time>2011-06-08T09:50:40Z</time>
      </trkpt>
      <trkpt lat="44.69411" lon="5.58609">
        <ele>847.2</ele>
        <time>2011-06-08T09:50:44Z</time>
      </trkpt>
      <trkpt lat="44.69452" lon="5.58592">
        <ele>845.2</ele>
        <time>2011-06-08T09:50:52Z</time>
      </trkpt>
      <trkpt lat="44.69579" lon="5.58578">
        <ele>836.2</ele>
        <time>2011-06-08T09:51:11Z</time>
      </trkpt>
      <trkpt lat="44.69582" lon="5.58566">
        <ele>834.5</ele>
        <time>2011-06-08T09:51:30Z</time>
      </trkpt>
      <trkpt lat="44.69421" lon="5.58509">
        <ele>824.3</ele>
        <time>2011-06-08T09:52:02Z</time>
      </trkpt>
      <trkpt lat="44.69422" lon="5.58498">
        <ele>823.9</ele>
        <time>2011-06-08T09:52:07Z</time>
      </trkpt>
      <trkpt lat="44.69447" lon="5.58507">
        <ele>821.8</ele>
        <time>2011-06-08T09:52:14Z</time>
      </trkpt>
      <trkpt lat="44.69532" lon="5.58494">
        <ele>815.5</ele>
        <time>2011-06-08T09:52:34Z</time>
      </trkpt>
      <trkpt lat="44.6953" lon="5.5848">
        <ele>814.9</ele>
        <time>2011-06-08T09:52:39Z</time>
      </trkpt>
      <trkpt lat="44.69446" lon="5.5847">
        <ele>809.9</ele>
        <time>2011-06-08T09:52:56Z</time>
      </trkpt>
      <trkpt lat="44.69409" lon="5.58442">
        <ele>807.2</ele>
        <time>2011-06-08T09:53:02Z</time>
      </trkpt>
      <trkpt lat="44.69386" lon="5.58435">
        <ele>805.4</ele>
        <time>2011-06-08T09:53:05Z</time>
      </trkpt>
      <trkpt lat="44.69373" lon="5.58423">
        <ele>804.5</ele>
        <time>2011-06-08T09:53:07Z</time>
      </trkpt>
      <trkpt lat="44.69341" lon="5.58352">
        <ele>801</ele>
        <time>2011-06-08T09:53:14Z</time>
      </trkpt>
      <trkpt lat="44.69299" lon="5.58306">
        <ele>796.7</ele>
        <time>2011-06-08T09:53:21Z</time>
      </trkpt>
      <trkpt lat="44.69283" lon="5.58297">
        <ele>795.1</ele>
        <time>2011-06-08T09:53:27Z</time>
      </trkpt>
      <trkpt lat="44.69249" lon="5.58299">
        <ele>793.4</ele>
        <time>2011-06-08T09:53:40Z</time>
      </trkpt>
      <trkpt lat="44.69235" lon="5.58294">
        <ele>792.8</ele>
        <time>2011-06-08T09:53:47Z</time>
      </trkpt>
      <trkpt lat="44.69213" lon="5.58282">
        <ele>791.2</ele>
        <time>2011-06-08T09:54:16Z</time>
      </trkpt>
      <trkpt lat="44.69218" lon="5.58281">
        <ele>790.1</ele>
        <time>2011-06-08T09:56:27Z</time>
      </trkpt>
      <trkpt lat="44.69195" lon="5.58274">
        <ele>789.1</ele>
        <time>2011-06-08T09:57:00Z</time>
      </trkpt>
      <trkpt lat="44.69157" lon="5.58294">
        <ele>787.6</ele>
        <time>2011-06-08T09:57:07Z</time>
      </trkpt>
      <trkpt lat="44.69132" lon="5.58293">
        <ele>786.2</ele>
        <time>2011-06-08T09:57:11Z</time>
      </trkpt>
      <trkpt lat="44.69103" lon="5.58277">
        <ele>785.3</ele>
        <time>2011-06-08T09:57:16Z</time>
      </trkpt>
      <trkpt lat="44.69007" lon="5.58134">
        <ele>774.8</ele>
        <time>2011-06-08T09:57:38Z</time>
      </trkpt>
      <trkpt lat="44.68996" lon="5.58008">
        <ele>770.7</ele>
        <time>2011-06-08T09:57:56Z</time>
      </trkpt>
      <trkpt lat="44.68885" lon="5.57955">
        <ele>764.1</ele>
        <time>2011-06-08T09:58:15Z</time>
      </trkpt>
      <trkpt lat="44.68879" lon="5.57945">
        <ele>762.4</ele>
        <time>2011-06-08T09:58:17Z</time>
      </trkpt>
      <trkpt lat="44.68868" lon="5.57867">
        <ele>756.9</ele>
        <time>2011-06-08T09:58:29Z</time>
      </trkpt>
      <trkpt lat="44.68712" lon="5.57559">
        <ele>745.2</ele>
        <time>2011-06-08T09:59:03Z</time>
      </trkpt>
      <trkpt lat="44.68653" lon="5.57526">
        <ele>743.4</ele>
        <time>2011-06-08T09:59:12Z</time>
      </trkpt>
      <trkpt lat="44.68572" lon="5.57532">
        <ele>740.3</ele>
        <time>2011-06-08T09:59:25Z</time>
      </trkpt>
      <trkpt lat="44.68333" lon="5.57452">
        <ele>733</ele>
        <time>2011-06-08T09:59:58Z</time>
      </trkpt>
      <trkpt lat="44.68309" lon="5.57416">
        <ele>732</ele>
        <time>2011-06-08T10:00:06Z</time>
      </trkpt>
      <trkpt lat="44.68177" lon="5.57332">
        <ele>730.7</ele>
        <time>2011-06-08T10:00:27Z</time>
      </trkpt>
      <trkpt lat="44.68164" lon="5.57301">
        <ele>729.4</ele>
        <time>2011-06-08T10:00:32Z</time>
      </trkpt>
      <trkpt lat="44.68172" lon="5.57254">
        <ele>729.5</ele>
        <time>2011-06-08T10:00:37Z</time>
      </trkpt>
      <trkpt lat="44.68208" lon="5.57181">
        <ele>730</ele>
        <time>2011-06-08T10:00:46Z</time>
      </trkpt>
      <trkpt lat="44.68194" lon="5.57163">
        <ele>728.4</ele>
        <time>2011-06-08T10:00:56Z</time>
      </trkpt>
      <trkpt lat="44.6818" lon="5.57139">
        <ele>728.2</ele>
        <time>2011-06-08T10:01:02Z</time>
      </trkpt>
      <trkpt lat="44.68051" lon="5.57083">
        <ele>724.2</ele>
        <time>2011-06-08T10:01:35Z</time>
      </trkpt>
      <trkpt lat="44.67962" lon="5.56964">
        <ele>721.6</ele>
        <time>2011-06-08T10:01:55Z</time>
      </trkpt>
      <trkpt lat="44.67929" lon="5.56885">
        <ele>718.8</ele>
        <time>2011-06-08T10:02:04Z</time>
      </trkpt>
      <trkpt lat="44.67921" lon="5.56834">
        <ele>718.5</ele>
        <time>2011-06-08T10:02:10Z</time>
      </trkpt>
      <trkpt lat="44.67935" lon="5.56807">
        <ele>718.6</ele>
        <time>2011-06-08T10:02:22Z</time>
      </trkpt>
      <trkpt lat="44.67949" lon="5.56818">
        <ele>720</ele>
        <time>2011-06-08T10:02:33Z</time>
      </trkpt>
      <trkpt lat="44.67984" lon="5.56837">
        <ele>724.9</ele>
        <time>2011-06-08T10:02:59Z</time>
      </trkpt>
      <trkpt lat="44.6799" lon="5.56859">
        <ele>728</ele>
        <time>2011-06-08T10:03:10Z</time>
      </trkpt>
      <trkpt lat="44.67986" lon="5.56886">
        <ele>729.4</ele>
        <time>2011-06-08T10:03:19Z</time>
      </trkpt>
      <trkpt lat="44.67989" lon="5.5692">
        <ele>732.1</ele>
        <time>2011-06-08T10:03:35Z</time>
      </trkpt>
      <trkpt lat="44.68006" lon="5.5694">
        <ele>734.3</ele>
        <time>2011-06-08T10:03:51Z</time>
      </trkpt>
      <trkpt lat="44.68042" lon="5.56943">
        <ele>737.5</ele>
        <time>2011-06-08T10:04:08Z</time>
      </trkpt>
      <trkpt lat="44.6808" lon="5.56956">
        <ele>742.2</ele>
        <time>2011-06-08T10:04:31Z</time>
      </trkpt>
      <trkpt lat="44.68098" lon="5.56973">
        <ele>744.5</ele>
        <time>2011-06-08T10:04:44Z</time>
      </trkpt>
      <trkpt lat="44.68107" lon="5.57">
        <ele>747.5</ele>
        <time>2011-06-08T10:05:01Z</time>
      </trkpt>
      <trkpt lat="44.68126" lon="5.57019">
        <ele>750.2</ele>
        <time>2011-06-08T10:05:17Z</time>
      </trkpt>
      <trkpt lat="44.68143" lon="5.57042">
        <ele>751.2</ele>
        <time>2011-06-08T10:05:30Z</time>
      </trkpt>
      <trkpt lat="44.68153" lon="5.57065">
        <ele>752.8</ele>
        <time>2011-06-08T10:05:40Z</time>
      </trkpt>
      <trkpt lat="44.68163" lon="5.57087">
        <ele>753.2</ele>
        <time>2011-06-08T10:05:52Z</time>
      </trkpt>
      <trkpt lat="44.68178" lon="5.57092">
        <ele>755.8</ele>
        <time>2011-06-08T10:06:02Z</time>
      </trkpt>
      <trkpt lat="44.68195" lon="5.57083">
        <ele>757.3</ele>
        <time>2011-06-08T10:06:11Z</time>
      </trkpt>
      <trkpt lat="44.68213" lon="5.57084">
        <ele>760.2</ele>
        <time>2011-06-08T10:06:26Z</time>
      </trkpt>
      <trkpt lat="44.68239" lon="5.57099">
        <ele>764.5</ele>
        <time>2011-06-08T10:06:47Z</time>
      </trkpt>
      <trkpt lat="44.68248" lon="5.57116">
        <ele>767.4</ele>
        <time>2011-06-08T10:07:01Z</time>
      </trkpt>
      <trkpt lat="44.68253" lon="5.57148">
        <ele>769.6</ele>
        <time>2011-06-08T10:07:19Z</time>
      </trkpt>
      <trkpt lat="44.68266" lon="5.57196">
        <ele>774</ele>
        <time>2011-06-08T10:07:40Z</time>
      </trkpt>
      <trkpt lat="44.68268" lon="5.57189">
        <ele>775.2</ele>
        <time>2011-06-08T10:07:48Z</time>
      </trkpt>
      <trkpt lat="44.6827" lon="5.57167">
        <ele>777.1</ele>
        <time>2011-06-08T10:08:01Z</time>
      </trkpt>
      <trkpt lat="44.68272" lon="5.57124">
        <ele>780.9</ele>
        <time>2011-06-08T10:08:23Z</time>
      </trkpt>
      <trkpt lat="44.68274" lon="5.57106">
        <ele>782.6</ele>
        <time>2011-06-08T10:08:34Z</time>
      </trkpt>
      <trkpt lat="44.68266" lon="5.57077">
        <ele>786.3</ele>
        <time>2011-06-08T10:08:55Z</time>
      </trkpt>
      <trkpt lat="44.6825" lon="5.57057">
        <ele>788.1</ele>
        <time>2011-06-08T10:09:19Z</time>
      </trkpt>
      <trkpt lat="44.68245" lon="5.57059">
        <ele>788.3</ele>
        <time>2011-06-08T10:10:00Z</time>
      </trkpt>
      <trkpt lat="44.68238" lon="5.57085">
        <ele>788.6</ele>
        <time>2011-06-08T10:12:01Z</time>
      </trkpt>
      <trkpt lat="44.68247" lon="5.57064">
        <ele>790</ele>
        <time>2011-06-08T10:12:45Z</time>
      </trkpt>
      <trkpt lat="44.68248" lon="5.57065">
        <ele>790.1</ele>
        <time>2011-06-08T10:14:34Z</time>
      </trkpt>
      <trkpt lat="44.68284" lon="5.57096">
        <ele>794</ele>
        <time>2011-06-08T10:15:03Z</time>
      </trkpt>
      <trkpt lat="44.68291" lon="5.57136">
        <ele>798.7</ele>
        <time>2011-06-08T10:15:30Z</time>
      </trkpt>
      <trkpt lat="44.68292" lon="5.57155">
        <ele>803.2</ele>
        <time>2011-06-08T10:15:44Z</time>
      </trkpt>
      <trkpt lat="44.68297" lon="5.57131">
        <ele>805.6</ele>
        <time>2011-06-08T10:15:56Z</time>
      </trkpt>
      <trkpt lat="44.68298" lon="5.57086">
        <ele>810.4</ele>
        <time>2011-06-08T10:16:20Z</time>
      </trkpt>
      <trkpt lat="44.68286" lon="5.57062">
        <ele>811.7</ele>
        <time>2011-06-08T10:16:33Z</time>
      </trkpt>
      <trkpt lat="44.68273" lon="5.57023">
        <ele>816.2</ele>
        <time>2011-06-08T10:16:53Z</time>
      </trkpt>
      <trkpt lat="44.68265" lon="5.56986">
        <ele>819</ele>
        <time>2011-06-08T10:17:09Z</time>
      </trkpt>
      <trkpt lat="44.68261" lon="5.56978">
        <ele>819.4</ele>
        <time>2011-06-08T10:17:13Z</time>
      </trkpt>
      <trkpt lat="44.68226" lon="5.56955">
        <ele>824.2</ele>
        <time>2011-06-08T10:17:38Z</time>
      </trkpt>
      <trkpt lat="44.68218" lon="5.56953">
        <ele>826.3</ele>
        <time>2011-06-08T10:17:43Z</time>
      </trkpt>
      <trkpt lat="44.68188" lon="5.56962">
        <ele>830</ele>
        <time>2011-06-08T10:18:03Z</time>
      </trkpt>
      <trkpt lat="44.68195" lon="5.56953">
        <ele>830.9</ele>
        <time>2011-06-08T10:18:13Z</time>
      </trkpt>
      <trkpt lat="44.68228" lon="5.56941">
        <ele>835.3</ele>
        <time>2011-06-08T10:18:38Z</time>
      </trkpt>
      <trkpt lat="44.68271" lon="5.56951">
        <ele>838.3</ele>
        <time>2011-06-08T10:19:03Z</time>
      </trkpt>
      <trkpt lat="44.68285" lon="5.5696">
        <ele>841.2</ele>
        <time>2011-06-08T10:19:12Z</time>
      </trkpt>
      <trkpt lat="44.6832" lon="5.57035">
        <ele>848.8</ele>
        <time>2011-06-08T10:19:49Z</time>
      </trkpt>
      <trkpt lat="44.68315" lon="5.56997">
        <ele>852.9</ele>
        <time>2011-06-08T10:20:10Z</time>
      </trkpt>
      <trkpt lat="44.6831" lon="5.56979">
        <ele>854.9</ele>
        <time>2011-06-08T10:20:18Z</time>
      </trkpt>
      <trkpt lat="44.68308" lon="5.56951">
        <ele>856.7</ele>
        <time>2011-06-08T10:20:31Z</time>
      </trkpt>
      <trkpt lat="44.68298" lon="5.56926">
        <ele>892</ele>
        <time>2011-06-08T10:20:45Z</time>
      </trkpt>
      <trkpt lat="44.68259" lon="5.56897">
        <ele>899.8</ele>
        <time>2011-06-08T10:21:15Z</time>
      </trkpt>
      <trkpt lat="44.68236" lon="5.56895">
        <ele>902.9</ele>
        <time>2011-06-08T10:21:30Z</time>
      </trkpt>
      <trkpt lat="44.68236" lon="5.56884">
        <ele>906.1</ele>
        <time>2011-06-08T10:22:03Z</time>
      </trkpt>
      <trkpt lat="44.68267" lon="5.5688">
        <ele>910.1</ele>
        <time>2011-06-08T10:22:28Z</time>
      </trkpt>
      <trkpt lat="44.683" lon="5.5689">
        <ele>915.3</ele>
        <time>2011-06-08T10:22:52Z</time>
      </trkpt>
      <trkpt lat="44.6833" lon="5.56912">
        <ele>918.2</ele>
        <time>2011-06-08T10:23:14Z</time>
      </trkpt>
      <trkpt lat="44.68388" lon="5.57014">
        <ele>926.6</ele>
        <time>2011-06-08T10:24:09Z</time>
      </trkpt>
      <trkpt lat="44.68398" lon="5.57042">
        <ele>928.4</ele>
        <time>2011-06-08T10:24:22Z</time>
      </trkpt>
      <trkpt lat="44.68404" lon="5.57077">
        <ele>930.9</ele>
        <time>2011-06-08T10:24:36Z</time>
      </trkpt>
      <trkpt lat="44.68414" lon="5.57084">
        <ele>932</ele>
        <time>2011-06-08T10:24:42Z</time>
      </trkpt>
      <trkpt lat="44.68428" lon="5.5707">
        <ele>932.7</ele>
        <time>2011-06-08T10:24:52Z</time>
      </trkpt>
      <trkpt lat="44.68439" lon="5.57002">
        <ele>933.5</ele>
        <time>2011-06-08T10:25:16Z</time>
      </trkpt>
      <trkpt lat="44.68443" lon="5.56992">
        <ele>933.2</ele>
        <time>2011-06-08T10:25:19Z</time>
      </trkpt>
      <trkpt lat="44.68511" lon="5.56882">
        <ele>936.1</ele>
        <time>2011-06-08T10:26:01Z</time>
      </trkpt>
      <trkpt lat="44.68545" lon="5.56866">
        <ele>936.9</ele>
        <time>2011-06-08T10:26:14Z</time>
      </trkpt>
      <trkpt lat="44.6855" lon="5.56861">
        <ele>936.7</ele>
        <time>2011-06-08T10:26:16Z</time>
      </trkpt>
      <trkpt lat="44.68582" lon="5.56848">
        <ele>936.4</ele>
        <time>2011-06-08T10:26:26Z</time>
      </trkpt>
      <trkpt lat="44.68623" lon="5.56838">
        <ele>938.1</ele>
        <time>2011-06-08T10:26:53Z</time>
      </trkpt>
      <trkpt lat="44.68641" lon="5.56822">
        <ele>938.7</ele>
        <time>2011-06-08T10:27:04Z</time>
      </trkpt>
      <trkpt lat="44.68659" lon="5.56781">
        <ele>941.7</ele>
        <time>2011-06-08T10:27:21Z</time>
      </trkpt>
      <trkpt lat="44.68697" lon="5.56749">
        <ele>946.4</ele>
        <time>2011-06-08T10:27:45Z</time>
      </trkpt>
      <trkpt lat="44.68714" lon="5.56726">
        <ele>947.7</ele>
        <time>2011-06-08T10:27:56Z</time>
      </trkpt>
      <trkpt lat="44.68747" lon="5.56691">
        <ele>951.4</ele>
        <time>2011-06-08T10:28:17Z</time>
      </trkpt>
      <trkpt lat="44.68757" lon="5.56673">
        <ele>952.5</ele>
        <time>2011-06-08T10:28:24Z</time>
      </trkpt>
      <trkpt lat="44.68814" lon="5.56631">
        <ele>956.5</ele>
        <time>2011-06-08T10:28:55Z</time>
      </trkpt>
      <trkpt lat="44.68889" lon="5.56587">
        <ele>962.1</ele>
        <time>2011-06-08T10:29:31Z</time>
      </trkpt>
      <trkpt lat="44.68906" lon="5.56564">
        <ele>963.7</ele>
        <time>2011-06-08T10:29:40Z</time>
      </trkpt>
      <trkpt lat="44.68927" lon="5.56557">
        <ele>965.1</ele>
        <time>2011-06-08T10:29:51Z</time>
      </trkpt>
      <trkpt lat="44.68984" lon="5.5653">
        <ele>970.4</ele>
        <time>2011-06-08T10:30:20Z</time>
      </trkpt>
      <trkpt lat="44.6901" lon="5.56522">
        <ele>971.9</ele>
        <time>2011-06-08T10:30:34Z</time>
      </trkpt>
      <trkpt lat="44.69038" lon="5.56516">
        <ele>974.9</ele>
        <time>2011-06-08T10:30:50Z</time>
      </trkpt>
      <trkpt lat="44.69048" lon="5.5651">
        <ele>975.5</ele>
        <time>2011-06-08T10:30:57Z</time>
      </trkpt>
      <trkpt lat="44.69079" lon="5.56504">
        <ele>976.7</ele>
        <time>2011-06-08T10:31:11Z</time>
      </trkpt>
      <trkpt lat="44.69112" lon="5.56497">
        <ele>978.2</ele>
        <time>2011-06-08T10:31:27Z</time>
      </trkpt>
      <trkpt lat="44.6912" lon="5.5651">
        <ele>978.6</ele>
        <time>2011-06-08T10:31:35Z</time>
      </trkpt>
      <trkpt lat="44.69105" lon="5.56525">
        <ele>980.7</ele>
        <time>2011-06-08T10:31:52Z</time>
      </trkpt>
      <trkpt lat="44.69092" lon="5.56535">
        <ele>983</ele>
        <time>2011-06-08T10:32:06Z</time>
      </trkpt>
      <trkpt lat="44.691" lon="5.56541">
        <ele>983.2</ele>
        <time>2011-06-08T10:33:09Z</time>
      </trkpt>
      <trkpt lat="44.69133" lon="5.56518">
        <ele>980.3</ele>
        <time>2011-06-08T10:33:19Z</time>
      </trkpt>
      <trkpt lat="44.69152" lon="5.56501">
        <ele>979.9</ele>
        <time>2011-06-08T10:33:34Z</time>
      </trkpt>
      <trkpt lat="44.69182" lon="5.56502">
        <ele>984.9</ele>
        <time>2011-06-08T10:33:56Z</time>
      </trkpt>
      <trkpt lat="44.69233" lon="5.56515">
        <ele>989.6</ele>
        <time>2011-06-08T10:34:30Z</time>
      </trkpt>
      <trkpt lat="44.69246" lon="5.56513">
        <ele>992</ele>
        <time>2011-06-08T10:34:41Z</time>
      </trkpt>
      <trkpt lat="44.69276" lon="5.56514">
        <ele>994.2</ele>
        <time>2011-06-08T10:34:59Z</time>
      </trkpt>
      <trkpt lat="44.69304" lon="5.56514">
        <ele>1001.1</ele>
        <time>2011-06-08T10:35:33Z</time>
      </trkpt>
      <trkpt lat="44.69326" lon="5.56515">
        <ele>1003.5</ele>
        <time>2011-06-08T10:35:58Z</time>
      </trkpt>
      <trkpt lat="44.69353" lon="5.56519">
        <ele>1006.7</ele>
        <time>2011-06-08T10:36:41Z</time>
      </trkpt>
      <trkpt lat="44.69344" lon="5.56522">
        <ele>1007.3</ele>
        <time>2011-06-08T10:37:53Z</time>
      </trkpt>
      <trkpt lat="44.69333" lon="5.56515">
        <ele>1005</ele>
        <time>2011-06-08T10:38:06Z</time>
      </trkpt>
      <trkpt lat="44.69288" lon="5.56504">
        <ele>999.1</ele>
        <time>2011-06-08T10:38:27Z</time>
      </trkpt>
      <trkpt lat="44.69259" lon="5.56502">
        <ele>993.2</ele>
        <time>2011-06-08T10:38:46Z</time>
      </trkpt>
      <trkpt lat="44.69242" lon="5.56505">
        <ele>990.6</ele>
        <time>2011-06-08T10:38:55Z</time>
      </trkpt>
      <trkpt lat="44.6921" lon="5.56492">
        <ele>986.4</ele>
        <time>2011-06-08T10:39:07Z</time>
      </trkpt>
      <trkpt lat="44.69196" lon="5.56494">
        <ele>984.6</ele>
        <time>2011-06-08T10:39:12Z</time>
      </trkpt>
      <trkpt lat="44.69152" lon="5.5649">
        <ele>978.4</ele>
        <time>2011-06-08T10:39:36Z</time>
      </trkpt>
      <trkpt lat="44.69136" lon="5.56487">
        <ele>978.9</ele>
        <time>2011-06-08T10:39:59Z</time>
      </trkpt>
      <trkpt lat="44.69137" lon="5.56495">
        <ele>978.6</ele>
        <time>2011-06-08T10:40:16Z</time>
      </trkpt>
      <trkpt lat="44.69084" lon="5.56499">
        <ele>974.5</ele>
        <time>2011-06-08T10:40:53Z</time>
      </trkpt>
      <trkpt lat="44.69072" lon="5.56505">
        <ele>974.7</ele>
        <time>2011-06-08T10:40:58Z</time>
      </trkpt>
      <trkpt lat="44.69043" lon="5.56505">
        <ele>973.3</ele>
        <time>2011-06-08T10:41:07Z</time>
      </trkpt>
      <trkpt lat="44.6903" lon="5.56511">
        <ele>971.6</ele>
        <time>2011-06-08T10:41:14Z</time>
      </trkpt>
      <trkpt lat="44.69027" lon="5.56514">
        <ele>969.6</ele>
        <time>2011-06-08T10:42:10Z</time>
      </trkpt>
      <trkpt lat="44.69028" lon="5.56506">
        <ele>970.1</ele>
        <time>2011-06-08T10:43:15Z</time>
      </trkpt>
      <trkpt lat="44.69015" lon="5.56515">
        <ele>969.6</ele>
        <time>2011-06-08T10:44:10Z</time>
      </trkpt>
      <trkpt lat="44.69014" lon="5.56519">
        <ele>969.5</ele>
        <time>2011-06-08T10:44:44Z</time>
      </trkpt>
      <trkpt lat="44.6903" lon="5.56517">
        <ele>970</ele>
        <time>2011-06-08T10:45:03Z</time>
      </trkpt>
      <trkpt lat="44.69047" lon="5.56512">
        <ele>972.9</ele>
        <time>2011-06-08T10:45:17Z</time>
      </trkpt>
      <trkpt lat="44.69089" lon="5.56498">
        <ele>975.1</ele>
        <time>2011-06-08T10:45:46Z</time>
      </trkpt>
      <trkpt lat="44.69102" lon="5.56498">
        <ele>976.4</ele>
        <time>2011-06-08T10:45:55Z</time>
      </trkpt>
      <trkpt lat="44.69145" lon="5.5648">
        <ele>979.6</ele>
        <time>2011-06-08T10:46:32Z</time>
      </trkpt>
      <trkpt lat="44.69161" lon="5.56485">
        <ele>978.5</ele>
        <time>2011-06-08T10:47:54Z</time>
      </trkpt>
      <trkpt lat="44.69191" lon="5.56487">
        <ele>984.1</ele>
        <time>2011-06-08T10:48:43Z</time>
      </trkpt>
      <trkpt lat="44.69189" lon="5.5649">
        <ele>984.3</ele>
        <time>2011-06-08T10:49:18Z</time>
      </trkpt>
      <trkpt lat="44.69193" lon="5.56481">
        <ele>983.7</ele>
        <time>2011-06-08T10:49:35Z</time>
      </trkpt>
      <trkpt lat="44.69198" lon="5.56487">
        <ele>983.7</ele>
        <time>2011-06-08T10:51:18Z</time>
      </trkpt>
      <trkpt lat="44.69195" lon="5.56478">
        <ele>983.6</ele>
        <time>2011-06-08T10:52:26Z</time>
      </trkpt>
      <trkpt lat="44.69195" lon="5.56485">
        <ele>983</ele>
        <time>2011-06-08T10:52:57Z</time>
      </trkpt>
      <trkpt lat="44.69199" lon="5.56486">
        <ele>982.8</ele>
        <time>2011-06-08T10:53:43Z</time>
      </trkpt>
      <trkpt lat="44.69201" lon="5.5648">
        <ele>984.4</ele>
        <time>2011-06-08T10:54:27Z</time>
      </trkpt>
      <trkpt lat="44.69206" lon="5.56467">
        <ele>984.2</ele>
        <time>2011-06-08T10:54:44Z</time>
      </trkpt>
      <trkpt lat="44.69198" lon="5.56476">
        <ele>983.4</ele>
        <time>2011-06-08T10:55:49Z</time>
      </trkpt>
      <trkpt lat="44.69201" lon="5.56476">
        <ele>982.6</ele>
        <time>2011-06-08T10:57:23Z</time>
      </trkpt>
      <trkpt lat="44.69203" lon="5.5647">
        <ele>982.6</ele>
        <time>2011-06-08T10:57:34Z</time>
      </trkpt>
      <trkpt lat="44.692" lon="5.5647">
        <ele>982.3</ele>
        <time>2011-06-08T10:58:03Z</time>
      </trkpt>
      <trkpt lat="44.69182" lon="5.56509">
        <ele>982.9</ele>
        <time>2011-06-08T10:59:09Z</time>
      </trkpt>
      <trkpt lat="44.69196" lon="5.56489">
        <ele>982.4</ele>
        <time>2011-06-08T11:00:31Z</time>
      </trkpt>
      <trkpt lat="44.69187" lon="5.56501">
        <ele>982.6</ele>
        <time>2011-06-08T11:01:16Z</time>
      </trkpt>
      <trkpt lat="44.69189" lon="5.56515">
        <ele>983.1</ele>
        <time>2011-06-08T11:01:45Z</time>
      </trkpt>
      <trkpt lat="44.69197" lon="5.56505">
        <ele>982.2</ele>
        <time>2011-06-08T11:02:12Z</time>
      </trkpt>
      <trkpt lat="44.69188" lon="5.5652">
        <ele>982.6</ele>
        <time>2011-06-08T11:02:44Z</time>
      </trkpt>
      <trkpt lat="44.69178" lon="5.56508">
        <ele>983.3</ele>
        <time>2011-06-08T11:03:18Z</time>
      </trkpt>
      <trkpt lat="44.69183" lon="5.56504">
        <ele>983.1</ele>
        <time>2011-06-08T11:03:51Z</time>
      </trkpt>
      <trkpt lat="44.69183" lon="5.56499">
        <ele>983.5</ele>
        <time>2011-06-08T11:04:05Z</time>
      </trkpt>
      <trkpt lat="44.69186" lon="5.56499">
        <ele>983.7</ele>
        <time>2011-06-08T11:04:09Z</time>
      </trkpt>
      <trkpt lat="44.69187" lon="5.56504">
        <ele>983.9</ele>
        <time>2011-06-08T11:04:35Z</time>
      </trkpt>
      <trkpt lat="44.69162" lon="5.56487">
        <ele>987</ele>
        <time>2011-06-08T11:05:25Z</time>
      </trkpt>
      <trkpt lat="44.69143" lon="5.56488">
        <ele>989</ele>
        <time>2011-06-08T11:05:48Z</time>
      </trkpt>
      <trkpt lat="44.69118" lon="5.56467">
        <ele>996.5</ele>
        <time>2011-06-08T11:06:45Z</time>
      </trkpt>
      <trkpt lat="44.69117" lon="5.5646">
        <ele>996.4</ele>
        <time>2011-06-08T11:07:26Z</time>
      </trkpt>
      <trkpt lat="44.69105" lon="5.56457">
        <ele>1000.4</ele>
        <time>2011-06-08T11:07:53Z</time>
      </trkpt>
      <trkpt lat="44.69078" lon="5.56449">
        <ele>1005.4</ele>
        <time>2011-06-08T11:08:26Z</time>
      </trkpt>
      <trkpt lat="44.69047" lon="5.56451">
        <ele>1011.4</ele>
        <time>2011-06-08T11:08:55Z</time>
      </trkpt>
      <trkpt lat="44.69036" lon="5.56451">
        <ele>1014.1</ele>
        <time>2011-06-08T11:09:16Z</time>
      </trkpt>
      <trkpt lat="44.69016" lon="5.5646">
        <ele>1016</ele>
        <time>2011-06-08T11:09:41Z</time>
      </trkpt>
      <trkpt lat="44.68988" lon="5.56442">
        <ele>1020.4</ele>
        <time>2011-06-08T11:10:05Z</time>
      </trkpt>
      <trkpt lat="44.68971" lon="5.5638">
        <ele>1024.6</ele>
        <time>2011-06-08T11:10:35Z</time>
      </trkpt>
      <trkpt lat="44.68967" lon="5.56339">
        <ele>1026.7</ele>
        <time>2011-06-08T11:10:55Z</time>
      </trkpt>
      <trkpt lat="44.68963" lon="5.56318">
        <ele>1030.1</ele>
        <time>2011-06-08T11:11:09Z</time>
      </trkpt>
      <trkpt lat="44.68954" lon="5.56313">
        <ele>1030.4</ele>
        <time>2011-06-08T11:11:34Z</time>
      </trkpt>
      <trkpt lat="44.6895" lon="5.5631">
        <ele>1029.6</ele>
        <time>2011-06-08T11:12:08Z</time>
      </trkpt>
      <trkpt lat="44.6893" lon="5.56335">
        <ele>1030.6</ele>
        <time>2011-06-08T11:12:31Z</time>
      </trkpt>
      <trkpt lat="44.68908" lon="5.5634">
        <ele>1030.5</ele>
        <time>2011-06-08T11:12:45Z</time>
      </trkpt>
      <trkpt lat="44.68903" lon="5.56346">
        <ele>1030.6</ele>
        <time>2011-06-08T11:12:49Z</time>
      </trkpt>
      <trkpt lat="44.6889" lon="5.56388">
        <ele>1035</ele>
        <time>2011-06-08T11:13:13Z</time>
      </trkpt>
      <trkpt lat="44.6888" lon="5.56409">
        <ele>1038.1</ele>
        <time>2011-06-08T11:13:33Z</time>
      </trkpt>
      <trkpt lat="44.68866" lon="5.56424">
        <ele>1039.4</ele>
        <time>2011-06-08T11:14:05Z</time>
      </trkpt>
      <trkpt lat="44.6884" lon="5.56423">
        <ele>1044.3</ele>
        <time>2011-06-08T11:14:31Z</time>
      </trkpt>
      <trkpt lat="44.68822" lon="5.56423">
        <ele>1046.9</ele>
        <time>2011-06-08T11:15:07Z</time>
      </trkpt>
      <trkpt lat="44.68791" lon="5.5642">
        <ele>1050.1</ele>
        <time>2011-06-08T11:15:35Z</time>
      </trkpt>
      <trkpt lat="44.68759" lon="5.56441">
        <ele>1057.1</ele>
        <time>2011-06-08T11:16:11Z</time>
      </trkpt>
      <trkpt lat="44.68735" lon="5.56439">
        <ele>1063.4</ele>
        <time>2011-06-08T11:16:47Z</time>
      </trkpt>
      <trkpt lat="44.68712" lon="5.56431">
        <ele>1065.5</ele>
        <time>2011-06-08T11:17:21Z</time>
      </trkpt>
      <trkpt lat="44.68686" lon="5.56419">
        <ele>1071.6</ele>
        <time>2011-06-08T11:18:05Z</time>
      </trkpt>
      <trkpt lat="44.68662" lon="5.5644">
        <ele>1076.2</ele>
        <time>2011-06-08T11:18:35Z</time>
      </trkpt>
      <trkpt lat="44.68649" lon="5.56464">
        <ele>1079.4</ele>
        <time>2011-06-08T11:18:58Z</time>
      </trkpt>
      <trkpt lat="44.68634" lon="5.56485">
        <ele>1083</ele>
        <time>2011-06-08T11:19:20Z</time>
      </trkpt>
      <trkpt lat="44.68607" lon="5.56503">
        <ele>1090.5</ele>
        <time>2011-06-08T11:19:50Z</time>
      </trkpt>
      <trkpt lat="44.68606" lon="5.56509">
        <ele>1090.4</ele>
        <time>2011-06-08T11:20:46Z</time>
      </trkpt>
      <trkpt lat="44.68586" lon="5.56513">
        <ele>1092.9</ele>
        <time>2011-06-08T11:21:53Z</time>
      </trkpt>
      <trkpt lat="44.68562" lon="5.5652">
        <ele>1097.6</ele>
        <time>2011-06-08T11:22:27Z</time>
      </trkpt>
      <trkpt lat="44.68539" lon="5.5653">
        <ele>1100.2</ele>
        <time>2011-06-08T11:22:45Z</time>
      </trkpt>
      <trkpt lat="44.68524" lon="5.56526">
        <ele>1099.7</ele>
        <time>2011-06-08T11:22:54Z</time>
      </trkpt>
      <trkpt lat="44.68505" lon="5.56515">
        <ele>1099.7</ele>
        <time>2011-06-08T11:23:22Z</time>
      </trkpt>
      <trkpt lat="44.68493" lon="5.56496">
        <ele>1098.3</ele>
        <time>2011-06-08T11:23:32Z</time>
      </trkpt>
      <trkpt lat="44.68423" lon="5.56419">
        <ele>1091</ele>
        <time>2011-06-08T11:24:25Z</time>
      </trkpt>
      <trkpt lat="44.68403" lon="5.56385">
        <ele>1089.2</ele>
        <time>2011-06-08T11:25:59Z</time>
      </trkpt>
      <trkpt lat="44.68402" lon="5.56385">
        <ele>1087.9</ele>
        <time>2011-06-08T11:26:41Z</time>
      </trkpt>
      <trkpt lat="44.68392" lon="5.56339">
        <ele>1086.2</ele>
        <time>2011-06-08T11:27:04Z</time>
      </trkpt>
      <trkpt lat="44.68371" lon="5.56302">
        <ele>1083.4</ele>
        <time>2011-06-08T11:27:29Z</time>
      </trkpt>
      <trkpt lat="44.68354" lon="5.56278">
        <ele>1082.9</ele>
        <time>2011-06-08T11:27:55Z</time>
      </trkpt>
      <trkpt lat="44.68337" lon="5.56255">
        <ele>1083.2</ele>
        <time>2011-06-08T11:28:17Z</time>
      </trkpt>
      <trkpt lat="44.68305" lon="5.56208">
        <ele>1086.5</ele>
        <time>2011-06-08T11:28:46Z</time>
      </trkpt>
      <trkpt lat="44.68297" lon="5.56184">
        <ele>1086</ele>
        <time>2011-06-08T11:29:00Z</time>
      </trkpt>
      <trkpt lat="44.6831" lon="5.56151">
        <ele>1083.8</ele>
        <time>2011-06-08T11:29:23Z</time>
      </trkpt>
      <trkpt lat="44.6832" lon="5.56126">
        <ele>1082.4</ele>
        <time>2011-06-08T11:29:35Z</time>
      </trkpt>
      <trkpt lat="44.68334" lon="5.56085">
        <ele>1074.6</ele>
        <time>2011-06-08T11:29:51Z</time>
      </trkpt>
      <trkpt lat="44.68392" lon="5.55898">
        <ele>1054.5</ele>
        <time>2011-06-08T11:30:54Z</time>
      </trkpt>
      <trkpt lat="44.6839" lon="5.55864">
        <ele>1050.8</ele>
        <time>2011-06-08T11:31:07Z</time>
      </trkpt>
      <trkpt lat="44.68383" lon="5.55833">
        <ele>1051.3</ele>
        <time>2011-06-08T11:31:52Z</time>
      </trkpt>
      <trkpt lat="44.68376" lon="5.55826">
        <ele>1054.1</ele>
        <time>2011-06-08T11:32:27Z</time>
      </trkpt>
      <trkpt lat="44.68363" lon="5.55811">
        <ele>1056.3</ele>
        <time>2011-06-08T11:32:44Z</time>
      </trkpt>
      <trkpt lat="44.68332" lon="5.55792">
        <ele>1061.4</ele>
        <time>2011-06-08T11:33:09Z</time>
      </trkpt>
      <trkpt lat="44.68304" lon="5.55775">
        <ele>1066.5</ele>
        <time>2011-06-08T11:33:33Z</time>
      </trkpt>
      <trkpt lat="44.68276" lon="5.55762">
        <ele>1070.6</ele>
        <time>2011-06-08T11:33:53Z</time>
      </trkpt>
      <trkpt lat="44.68271" lon="5.55756">
        <ele>1070.4</ele>
        <time>2011-06-08T11:33:58Z</time>
      </trkpt>
      <trkpt lat="44.68241" lon="5.55729">
        <ele>1072.1</ele>
        <time>2011-06-08T11:34:20Z</time>
      </trkpt>
      <trkpt lat="44.68222" lon="5.55702">
        <ele>1073.8</ele>
        <time>2011-06-08T11:34:36Z</time>
      </trkpt>
      <trkpt lat="44.68189" lon="5.55667">
        <ele>1075.9</ele>
        <time>2011-06-08T11:35:00Z</time>
      </trkpt>
      <trkpt lat="44.68168" lon="5.55633">
        <ele>1078.9</ele>
        <time>2011-06-08T11:35:20Z</time>
      </trkpt>
      <trkpt lat="44.68158" lon="5.55604">
        <ele>1082.6</ele>
        <time>2011-06-08T11:35:36Z</time>
      </trkpt>
      <trkpt lat="44.68161" lon="5.55587">
        <ele>1082.4</ele>
        <time>2011-06-08T11:35:48Z</time>
      </trkpt>
      <trkpt lat="44.6818" lon="5.55543">
        <ele>1084.1</ele>
        <time>2011-06-08T11:36:12Z</time>
      </trkpt>
      <trkpt lat="44.68188" lon="5.55524">
        <ele>1086.1</ele>
        <time>2011-06-08T11:36:27Z</time>
      </trkpt>
      <trkpt lat="44.68198" lon="5.55507">
        <ele>1087.7</ele>
        <time>2011-06-08T11:36:37Z</time>
      </trkpt>
      <trkpt lat="44.68222" lon="5.55475">
        <ele>1094.1</ele>
        <time>2011-06-08T11:37:03Z</time>
      </trkpt>
      <trkpt lat="44.68242" lon="5.55434">
        <ele>1097.4</ele>
        <time>2011-06-08T11:37:31Z</time>
      </trkpt>
      <trkpt lat="44.68247" lon="5.55423">
        <ele>1098.3</ele>
        <time>2011-06-08T11:37:41Z</time>
      </trkpt>
      <trkpt lat="44.6825" lon="5.55386">
        <ele>1099.8</ele>
        <time>2011-06-08T11:38:13Z</time>
      </trkpt>
      <trkpt lat="44.68225" lon="5.55356">
        <ele>1098.2</ele>
        <time>2011-06-08T11:38:27Z</time>
      </trkpt>
      <trkpt lat="44.68207" lon="5.55329">
        <ele>1100.2</ele>
        <time>2011-06-08T11:38:42Z</time>
      </trkpt>
      <trkpt lat="44.6818" lon="5.55302">
        <ele>1097.6</ele>
        <time>2011-06-08T11:38:59Z</time>
      </trkpt>
      <trkpt lat="44.68168" lon="5.55273">
        <ele>1094.8</ele>
        <time>2011-06-08T11:39:14Z</time>
      </trkpt>
      <trkpt lat="44.68156" lon="5.55233">
        <ele>1094.6</ele>
        <time>2011-06-08T11:39:39Z</time>
      </trkpt>
      <trkpt lat="44.68145" lon="5.55221">
        <ele>1099</ele>
        <time>2011-06-08T11:40:37Z</time>
      </trkpt>
      <trkpt lat="44.68115" lon="5.55197">
        <ele>1081.4</ele>
        <time>2011-06-08T11:41:01Z</time>
      </trkpt>
      <trkpt lat="44.68098" lon="5.55187">
        <ele>1079.8</ele>
        <time>2011-06-08T11:41:13Z</time>
      </trkpt>
      <trkpt lat="44.68047" lon="5.55175">
        <ele>1083.3</ele>
        <time>2011-06-08T11:41:40Z</time>
      </trkpt>
      <trkpt lat="44.68035" lon="5.55177">
        <ele>1086.4</ele>
        <time>2011-06-08T11:41:54Z</time>
      </trkpt>
      <trkpt lat="44.68019" lon="5.55166">
        <ele>1091.1</ele>
        <time>2011-06-08T11:42:27Z</time>
      </trkpt>
      <trkpt lat="44.67999" lon="5.55145">
        <ele>1091.6</ele>
        <time>2011-06-08T11:43:09Z</time>
      </trkpt>
      <trkpt lat="44.67986" lon="5.55125">
        <ele>1090.8</ele>
        <time>2011-06-08T11:43:21Z</time>
      </trkpt>
      <trkpt lat="44.67961" lon="5.55099">
        <ele>1089.8</ele>
        <time>2011-06-08T11:43:36Z</time>
      </trkpt>
      <trkpt lat="44.67945" lon="5.55093">
        <ele>1090</ele>
        <time>2011-06-08T11:43:43Z</time>
      </trkpt>
      <trkpt lat="44.67877" lon="5.55103">
        <ele>1094.6</ele>
        <time>2011-06-08T11:44:17Z</time>
      </trkpt>
      <trkpt lat="44.67836" lon="5.55121">
        <ele>1094.5</ele>
        <time>2011-06-08T11:44:40Z</time>
      </trkpt>
      <trkpt lat="44.67815" lon="5.55134">
        <ele>1092.6</ele>
        <time>2011-06-08T11:44:58Z</time>
      </trkpt>
      <trkpt lat="44.67792" lon="5.55135">
        <ele>1092.2</ele>
        <time>2011-06-08T11:45:30Z</time>
      </trkpt>
      <trkpt lat="44.67768" lon="5.55076">
        <ele>1091.1</ele>
        <time>2011-06-08T11:45:47Z</time>
      </trkpt>
      <trkpt lat="44.67697" lon="5.5501">
        <ele>1090</ele>
        <time>2011-06-08T11:46:12Z</time>
      </trkpt>
      <trkpt lat="44.67683" lon="5.55005">
        <ele>1089.6</ele>
        <time>2011-06-08T11:46:16Z</time>
      </trkpt>
      <trkpt lat="44.67592" lon="5.55013">
        <ele>1085.5</ele>
        <time>2011-06-08T11:46:38Z</time>
      </trkpt>
      <trkpt lat="44.67584" lon="5.55011">
        <ele>1084.7</ele>
        <time>2011-06-08T11:46:40Z</time>
      </trkpt>
      <trkpt lat="44.67539" lon="5.54959">
        <ele>1082.4</ele>
        <time>2011-06-08T11:46:54Z</time>
      </trkpt>
      <trkpt lat="44.67451" lon="5.54921">
        <ele>1088.6</ele>
        <time>2011-06-08T11:47:31Z</time>
      </trkpt>
      <trkpt lat="44.67432" lon="5.54897">
        <ele>1090</ele>
        <time>2011-06-08T11:47:44Z</time>
      </trkpt>
      <trkpt lat="44.67433" lon="5.54874">
        <ele>1090.8</ele>
        <time>2011-06-08T11:49:41Z</time>
      </trkpt>
      <trkpt lat="44.67448" lon="5.54867">
        <ele>1092.4</ele>
        <time>2011-06-08T11:49:49Z</time>
      </trkpt>
      <trkpt lat="44.67493" lon="5.54879">
        <ele>1091.6</ele>
        <time>2011-06-08T11:50:13Z</time>
      </trkpt>
      <trkpt lat="44.67505" lon="5.54887">
        <ele>1092.5</ele>
        <time>2011-06-08T11:50:19Z</time>
      </trkpt>
      <trkpt lat="44.67539" lon="5.54899">
        <ele>1095.4</ele>
        <time>2011-06-08T11:50:31Z</time>
      </trkpt>
      <trkpt lat="44.67553" lon="5.54917">
        <ele>1098.2</ele>
        <time>2011-06-08T11:51:07Z</time>
      </trkpt>
      <trkpt lat="44.67557" lon="5.54888">
        <ele>1097.2</ele>
        <time>2011-06-08T11:51:45Z</time>
      </trkpt>
      <trkpt lat="44.67547" lon="5.5487">
        <ele>1092.3</ele>
        <time>2011-06-08T11:52:19Z</time>
      </trkpt>
      <trkpt lat="44.67539" lon="5.54868">
        <ele>1092</ele>
        <time>2011-06-08T11:52:40Z</time>
      </trkpt>
      <trkpt lat="44.67515" lon="5.54874">
        <ele>1093.4</ele>
        <time>2011-06-08T11:53:06Z</time>
      </trkpt>
      <trkpt lat="44.67482" lon="5.5487">
        <ele>1091.3</ele>
        <time>2011-06-08T11:53:30Z</time>
      </trkpt>
      <trkpt lat="44.67457" lon="5.54862">
        <ele>1090</ele>
        <time>2011-06-08T11:53:40Z</time>
      </trkpt>
      <trkpt lat="44.67441" lon="5.5487">
        <ele>1089.5</ele>
        <time>2011-06-08T11:53:49Z</time>
      </trkpt>
      <trkpt lat="44.6743" lon="5.54887">
        <ele>1090.8</ele>
        <time>2011-06-08T11:54:52Z</time>
      </trkpt>
      <trkpt lat="44.67424" lon="5.54886">
        <ele>1090.5</ele>
        <time>2011-06-08T12:26:05Z</time>
      </trkpt>
      <trkpt lat="44.67414" lon="5.54865">
        <ele>1088.1</ele>
        <time>2011-06-08T12:26:12Z</time>
      </trkpt>
      <trkpt lat="44.67419" lon="5.54844">
        <ele>1085.4</ele>
        <time>2011-06-08T12:26:19Z</time>
      </trkpt>
      <trkpt lat="44.67554" lon="5.54743">
        <ele>1060</ele>
        <time>2011-06-08T12:26:57Z</time>
      </trkpt>
      <trkpt lat="44.67559" lon="5.54732">
        <ele>1058.1</ele>
        <time>2011-06-08T12:26:59Z</time>
      </trkpt>
      <trkpt lat="44.67578" lon="5.54626">
        <ele>1046.9</ele>
        <time>2011-06-08T12:27:21Z</time>
      </trkpt>
      <trkpt lat="44.67596" lon="5.5461">
        <ele>1047.8</ele>
        <time>2011-06-08T12:28:14Z</time>
      </trkpt>
      <trkpt lat="44.67613" lon="5.54617">
        <ele>1048.6</ele>
        <time>2011-06-08T12:28:22Z</time>
      </trkpt>
      <trkpt lat="44.67627" lon="5.54629">
        <ele>1049.7</ele>
        <time>2011-06-08T12:28:40Z</time>
      </trkpt>
      <trkpt lat="44.67661" lon="5.54678">
        <ele>1056.2</ele>
        <time>2011-06-08T12:29:10Z</time>
      </trkpt>
      <trkpt lat="44.6768" lon="5.54744">
        <ele>1062.5</ele>
        <time>2011-06-08T12:29:38Z</time>
      </trkpt>
      <trkpt lat="44.67791" lon="5.54904">
        <ele>1066.2</ele>
        <time>2011-06-08T12:30:41Z</time>
      </trkpt>
      <trkpt lat="44.67812" lon="5.54915">
        <ele>1068.4</ele>
        <time>2011-06-08T12:30:49Z</time>
      </trkpt>
      <trkpt lat="44.67846" lon="5.54907">
        <ele>1076.3</ele>
        <time>2011-06-08T12:31:07Z</time>
      </trkpt>
      <trkpt lat="44.67893" lon="5.54914">
        <ele>1080</ele>
        <time>2011-06-08T12:31:30Z</time>
      </trkpt>
      <trkpt lat="44.67918" lon="5.54912">
        <ele>1083</ele>
        <time>2011-06-08T12:31:44Z</time>
      </trkpt>
      <trkpt lat="44.6796" lon="5.54895">
        <ele>1085.2</ele>
        <time>2011-06-08T12:32:03Z</time>
      </trkpt>
      <trkpt lat="44.68008" lon="5.54905">
        <ele>1087.7</ele>
        <time>2011-06-08T12:32:23Z</time>
      </trkpt>
      <trkpt lat="44.68098" lon="5.54873">
        <ele>1092</ele>
        <time>2011-06-08T12:33:04Z</time>
      </trkpt>
      <trkpt lat="44.68108" lon="5.54873">
        <ele>1093.1</ele>
        <time>2011-06-08T12:33:08Z</time>
      </trkpt>
      <trkpt lat="44.68142" lon="5.54892">
        <ele>1096.5</ele>
        <time>2011-06-08T12:33:28Z</time>
      </trkpt>
      <trkpt lat="44.68179" lon="5.54917">
        <ele>1100.6</ele>
        <time>2011-06-08T12:33:56Z</time>
      </trkpt>
      <trkpt lat="44.68198" lon="5.54925">
        <ele>1101</ele>
        <time>2011-06-08T12:35:04Z</time>
      </trkpt>
      <trkpt lat="44.68198" lon="5.54928">
        <ele>1102.1</ele>
        <time>2011-06-08T12:36:28Z</time>
      </trkpt>
      <trkpt lat="44.68199" lon="5.54925">
        <ele>1101.5</ele>
        <time>2011-06-08T12:39:21Z</time>
      </trkpt>
      <trkpt lat="44.682" lon="5.54929">
        <ele>1101.9</ele>
        <time>2011-06-08T12:40:06Z</time>
      </trkpt>
      <trkpt lat="44.682" lon="5.54936">
        <ele>1102.3</ele>
        <time>2011-06-08T12:40:34Z</time>
      </trkpt>
      <trkpt lat="44.68196" lon="5.54934">
        <ele>1102.9</ele>
        <time>2011-06-08T12:41:06Z</time>
      </trkpt>
      <trkpt lat="44.68195" lon="5.5493">
        <ele>1102.4</ele>
        <time>2011-06-08T12:42:40Z</time>
      </trkpt>
      <trkpt lat="44.68201" lon="5.54927">
        <ele>1102.9</ele>
        <time>2011-06-08T12:43:24Z</time>
      </trkpt>
      <trkpt lat="44.68208" lon="5.54929">
        <ele>1102</ele>
        <time>2011-06-08T12:44:29Z</time>
      </trkpt>
      <trkpt lat="44.68205" lon="5.54927">
        <ele>1101.5</ele>
        <time>2011-06-08T12:49:46Z</time>
      </trkpt>
      <trkpt lat="44.6821" lon="5.54921">
        <ele>1100.6</ele>
        <time>2011-06-08T12:51:52Z</time>
      </trkpt>
      <trkpt lat="44.68203" lon="5.54926">
        <ele>1100.2</ele>
        <time>2011-06-08T12:52:54Z</time>
      </trkpt>
      <trkpt lat="44.68205" lon="5.54923">
        <ele>1100.8</ele>
        <time>2011-06-08T12:54:17Z</time>
      </trkpt>
      <trkpt lat="44.68205" lon="5.54927">
        <ele>1100.8</ele>
        <time>2011-06-08T12:55:37Z</time>
      </trkpt>
      <trkpt lat="44.68202" lon="5.54925">
        <ele>1101.5</ele>
        <time>2011-06-08T12:56:07Z</time>
      </trkpt>
      <trkpt lat="44.68195" lon="5.54929">
        <ele>1101.9</ele>
        <time>2011-06-08T12:57:46Z</time>
      </trkpt>
      <trkpt lat="44.68202" lon="5.54928">
        <ele>1100.9</ele>
        <time>2011-06-08T12:59:33Z</time>
      </trkpt>
      <trkpt lat="44.68199" lon="5.54931">
        <ele>1101.1</ele>
        <time>2011-06-08T13:00:14Z</time>
      </trkpt>
      <trkpt lat="44.68204" lon="5.5493">
        <ele>1100.8</ele>
        <time>2011-06-08T13:00:53Z</time>
      </trkpt>
      <trkpt lat="44.68205" lon="5.54926">
        <ele>1100.9</ele>
        <time>2011-06-08T13:02:02Z</time>
      </trkpt>
      <trkpt lat="44.68198" lon="5.54926">
        <ele>1100.1</ele>
        <time>2011-06-08T13:03:11Z</time>
      </trkpt>
      <trkpt lat="44.68199" lon="5.54934">
        <ele>1102.5</ele>
        <time>2011-06-08T13:04:17Z</time>
      </trkpt>
      <trkpt lat="44.68198" lon="5.54933">
        <ele>1102.5</ele>
        <time>2011-06-08T13:04:54Z</time>
      </trkpt>
      <trkpt lat="44.68198" lon="5.54933">
        <ele>1101</ele>
        <time>2011-06-08T13:06:46Z</time>
      </trkpt>
      <trkpt lat="44.68204" lon="5.54931">
        <ele>1101.6</ele>
        <time>2011-06-08T13:07:18Z</time>
      </trkpt>
      <trkpt lat="44.68203" lon="5.54928">
        <ele>1101.2</ele>
        <time>2011-06-08T13:07:52Z</time>
      </trkpt>
      <trkpt lat="44.68201" lon="5.54926">
        <ele>1101.1</ele>
        <time>2011-06-08T13:08:31Z</time>
      </trkpt>
      <trkpt lat="44.68198" lon="5.54927">
        <ele>1100.9</ele>
        <time>2011-06-08T13:10:00Z</time>
      </trkpt>
      <trkpt lat="44.68201" lon="5.54922">
        <ele>1099.7</ele>
        <time>2011-06-08T13:12:11Z</time>
      </trkpt>
      <trkpt lat="44.68197" lon="5.54922">
        <ele>1100.7</ele>
        <time>2011-06-08T13:14:17Z</time>
      </trkpt>
      <trkpt lat="44.68193" lon="5.54916">
        <ele>1100.7</ele>
        <time>2011-06-08T13:14:50Z</time>
      </trkpt>
      <trkpt lat="44.68194" lon="5.54913">
        <ele>1100.4</ele>
        <time>2011-06-08T13:15:10Z</time>
      </trkpt>
      <trkpt lat="44.68194" lon="5.54911">
        <ele>1101.3</ele>
        <time>2011-06-08T13:16:06Z</time>
      </trkpt>
      <trkpt lat="44.68195" lon="5.54921">
        <ele>1100.5</ele>
        <time>2011-06-08T13:16:50Z</time>
      </trkpt>
      <trkpt lat="44.68213" lon="5.5494">
        <ele>1102.5</ele>
        <time>2011-06-08T13:17:11Z</time>
      </trkpt>
      <trkpt lat="44.68228" lon="5.54948">
        <ele>1103.8</ele>
        <time>2011-06-08T13:17:33Z</time>
      </trkpt>
      <trkpt lat="44.68266" lon="5.5495">
        <ele>1103.9</ele>
        <time>2011-06-08T13:17:47Z</time>
      </trkpt>
      <trkpt lat="44.68396" lon="5.54907">
        <ele>1114.1</ele>
        <time>2011-06-08T13:18:31Z</time>
      </trkpt>
      <trkpt lat="44.68457" lon="5.54914">
        <ele>1121.4</ele>
        <time>2011-06-08T13:19:01Z</time>
      </trkpt>
      <trkpt lat="44.6847" lon="5.54894">
        <ele>1124.3</ele>
        <time>2011-06-08T13:19:14Z</time>
      </trkpt>
      <trkpt lat="44.68464" lon="5.54861">
        <ele>1125.2</ele>
        <time>2011-06-08T13:19:26Z</time>
      </trkpt>
      <trkpt lat="44.68494" lon="5.54769">
        <ele>1133.2</ele>
        <time>2011-06-08T13:20:03Z</time>
      </trkpt>
      <trkpt lat="44.68522" lon="5.5472">
        <ele>1137.1</ele>
        <time>2011-06-08T13:20:33Z</time>
      </trkpt>
      <trkpt lat="44.6858" lon="5.54647">
        <ele>1145.9</ele>
        <time>2011-06-08T13:21:25Z</time>
      </trkpt>
      <trkpt lat="44.68589" lon="5.54639">
        <ele>1149.2</ele>
        <time>2011-06-08T13:22:14Z</time>
      </trkpt>
      <trkpt lat="44.68587" lon="5.54628">
        <ele>1148.6</ele>
        <time>2011-06-08T13:22:32Z</time>
      </trkpt>
      <trkpt lat="44.68611" lon="5.54598">
        <ele>1145.2</ele>
        <time>2011-06-08T13:22:42Z</time>
      </trkpt>
      <trkpt lat="44.68616" lon="5.54585">
        <ele>1145.3</ele>
        <time>2011-06-08T13:22:46Z</time>
      </trkpt>
      <trkpt lat="44.68686" lon="5.54525">
        <ele>1140.6</ele>
        <time>2011-06-08T13:23:08Z</time>
      </trkpt>
      <trkpt lat="44.68739" lon="5.5447">
        <ele>1136.6</ele>
        <time>2011-06-08T13:23:37Z</time>
      </trkpt>
      <trkpt lat="44.68745" lon="5.54467">
        <ele>1135.6</ele>
        <time>2011-06-08T13:23:38Z</time>
      </trkpt>
      <trkpt lat="44.68854" lon="5.54441">
        <ele>1116</ele>
        <time>2011-06-08T13:23:52Z</time>
      </trkpt>
      <trkpt lat="44.68857" lon="5.54433">
        <ele>1113.8</ele>
        <time>2011-06-08T13:23:55Z</time>
      </trkpt>
      <trkpt lat="44.6884" lon="5.54384">
        <ele>1116.8</ele>
        <time>2011-06-08T13:24:13Z</time>
      </trkpt>
      <trkpt lat="44.68837" lon="5.54343">
        <ele>1120.9</ele>
        <time>2011-06-08T13:24:26Z</time>
      </trkpt>
      <trkpt lat="44.68775" lon="5.54217">
        <ele>1113.1</ele>
        <time>2011-06-08T13:24:49Z</time>
      </trkpt>
      <trkpt lat="44.68773" lon="5.54209">
        <ele>1112.4</ele>
        <time>2011-06-08T13:24:50Z</time>
      </trkpt>
      <trkpt lat="44.68771" lon="5.54143">
        <ele>1112.2</ele>
        <time>2011-06-08T13:25:01Z</time>
      </trkpt>
      <trkpt lat="44.6876" lon="5.54114">
        <ele>1113.9</ele>
        <time>2011-06-08T13:25:20Z</time>
      </trkpt>
      <trkpt lat="44.68673" lon="5.54024">
        <ele>1104</ele>
        <time>2011-06-08T13:25:41Z</time>
      </trkpt>
      <trkpt lat="44.68647" lon="5.53954">
        <ele>1096.4</ele>
        <time>2011-06-08T13:25:52Z</time>
      </trkpt>
      <trkpt lat="44.6864" lon="5.53943">
        <ele>1095.1</ele>
        <time>2011-06-08T13:25:54Z</time>
      </trkpt>
      <trkpt lat="44.68571" lon="5.53906">
        <ele>1082.1</ele>
        <time>2011-06-08T13:26:13Z</time>
      </trkpt>
      <trkpt lat="44.68569" lon="5.53903">
        <ele>1080.8</ele>
        <time>2011-06-08T13:26:28Z</time>
      </trkpt>
      <trkpt lat="44.68525" lon="5.5388">
        <ele>1077.4</ele>
        <time>2011-06-08T13:26:37Z</time>
      </trkpt>
      <trkpt lat="44.68481" lon="5.53877">
        <ele>1072.5</ele>
        <time>2011-06-08T13:26:43Z</time>
      </trkpt>
      <trkpt lat="44.68443" lon="5.53857">
        <ele>1067.1</ele>
        <time>2011-06-08T13:26:50Z</time>
      </trkpt>
      <trkpt lat="44.68395" lon="5.53859">
        <ele>1060.9</ele>
        <time>2011-06-08T13:26:59Z</time>
      </trkpt>
      <trkpt lat="44.68372" lon="5.53855">
        <ele>1059</ele>
        <time>2011-06-08T13:27:21Z</time>
      </trkpt>
      <trkpt lat="44.68346" lon="5.53872">
        <ele>1053.7</ele>
        <time>2011-06-08T13:27:35Z</time>
      </trkpt>
      <trkpt lat="44.68323" lon="5.53876">
        <ele>1049.8</ele>
        <time>2011-06-08T13:27:56Z</time>
      </trkpt>
      <trkpt lat="44.68308" lon="5.5388">
        <ele>1048.4</ele>
        <time>2011-06-08T13:28:01Z</time>
      </trkpt>
      <trkpt lat="44.68296" lon="5.53852">
        <ele>1044.8</ele>
        <time>2011-06-08T13:28:10Z</time>
      </trkpt>
      <trkpt lat="44.68302" lon="5.53832">
        <ele>1042.4</ele>
        <time>2011-06-08T13:28:16Z</time>
      </trkpt>
      <trkpt lat="44.68322" lon="5.53817">
        <ele>1041</ele>
        <time>2011-06-08T13:28:24Z</time>
      </trkpt>
      <trkpt lat="44.68312" lon="5.5381">
        <ele>1035.8</ele>
        <time>2011-06-08T13:28:37Z</time>
      </trkpt>
      <trkpt lat="44.68262" lon="5.5379">
        <ele>1028.4</ele>
        <time>2011-06-08T13:28:52Z</time>
      </trkpt>
      <trkpt lat="44.68248" lon="5.5377">
        <ele>1023.8</ele>
        <time>2011-06-08T13:29:01Z</time>
      </trkpt>
      <trkpt lat="44.68239" lon="5.5375">
        <ele>1019.1</ele>
        <time>2011-06-08T13:29:23Z</time>
      </trkpt>
      <trkpt lat="44.68227" lon="5.53731">
        <ele>1018.5</ele>
        <time>2011-06-08T13:29:58Z</time>
      </trkpt>
      <trkpt lat="44.68192" lon="5.53706">
        <ele>1015.7</ele>
        <time>2011-06-08T13:30:06Z</time>
      </trkpt>
      <trkpt lat="44.68124" lon="5.53637">
        <ele>1008.8</ele>
        <time>2011-06-08T13:30:21Z</time>
      </trkpt>
      <trkpt lat="44.68113" lon="5.53629">
        <ele>1006.6</ele>
        <time>2011-06-08T13:31:03Z</time>
      </trkpt>
      <trkpt lat="44.68093" lon="5.53602">
        <ele>1002.7</ele>
        <time>2011-06-08T13:31:15Z</time>
      </trkpt>
      <trkpt lat="44.68061" lon="5.53553">
        <ele>991.2</ele>
        <time>2011-06-08T13:31:31Z</time>
      </trkpt>
      <trkpt lat="44.68049" lon="5.53523">
        <ele>984.2</ele>
        <time>2011-06-08T13:31:40Z</time>
      </trkpt>
      <trkpt lat="44.68034" lon="5.53512">
        <ele>978.2</ele>
        <time>2011-06-08T13:31:46Z</time>
      </trkpt>
      <trkpt lat="44.68016" lon="5.53494">
        <ele>972.8</ele>
        <time>2011-06-08T13:31:55Z</time>
      </trkpt>
      <trkpt lat="44.67994" lon="5.53473">
        <ele>962.4</ele>
        <time>2011-06-08T13:32:12Z</time>
      </trkpt>
      <trkpt lat="44.67989" lon="5.53454">
        <ele>958.8</ele>
        <time>2011-06-08T13:32:23Z</time>
      </trkpt>
      <trkpt lat="44.6798" lon="5.53445">
        <ele>954.7</ele>
        <time>2011-06-08T13:32:33Z</time>
      </trkpt>
      <trkpt lat="44.67968" lon="5.53446">
        <ele>951.7</ele>
        <time>2011-06-08T13:32:40Z</time>
      </trkpt>
      <trkpt lat="44.6796" lon="5.53431">
        <ele>946.8</ele>
        <time>2011-06-08T13:32:56Z</time>
      </trkpt>
      <trkpt lat="44.67946" lon="5.53437">
        <ele>942.9</ele>
        <time>2011-06-08T13:33:14Z</time>
      </trkpt>
      <trkpt lat="44.67947" lon="5.53415">
        <ele>940.4</ele>
        <time>2011-06-08T13:33:23Z</time>
      </trkpt>
      <trkpt lat="44.67936" lon="5.53418">
        <ele>937.5</ele>
        <time>2011-06-08T13:33:29Z</time>
      </trkpt>
      <trkpt lat="44.67927" lon="5.53418">
        <ele>933.8</ele>
        <time>2011-06-08T13:33:38Z</time>
      </trkpt>
      <trkpt lat="44.67937" lon="5.53397">
        <ele>930.1</ele>
        <time>2011-06-08T13:33:55Z</time>
      </trkpt>
      <trkpt lat="44.67954" lon="5.53379">
        <ele>925.5</ele>
        <time>2011-06-08T13:34:08Z</time>
      </trkpt>
      <trkpt lat="44.67989" lon="5.53361">
        <ele>913.6</ele>
        <time>2011-06-08T13:34:23Z</time>
      </trkpt>
      <trkpt lat="44.67959" lon="5.5334">
        <ele>905.4</ele>
        <time>2011-06-08T13:34:36Z</time>
      </trkpt>
      <trkpt lat="44.67932" lon="5.53336">
        <ele>899.5</ele>
        <time>2011-06-08T13:34:46Z</time>
      </trkpt>
      <trkpt lat="44.67988" lon="5.53308">
        <ele>885.7</ele>
        <time>2011-06-08T13:35:04Z</time>
      </trkpt>
      <trkpt lat="44.68001" lon="5.5331">
        <ele>882.7</ele>
        <time>2011-06-08T13:35:08Z</time>
      </trkpt>
      <trkpt lat="44.67972" lon="5.5328">
        <ele>869.7</ele>
        <time>2011-06-08T13:35:28Z</time>
      </trkpt>
      <trkpt lat="44.67954" lon="5.53272">
        <ele>862.6</ele>
        <time>2011-06-08T13:35:38Z</time>
      </trkpt>
      <trkpt lat="44.67926" lon="5.53269">
        <ele>854.8</ele>
        <time>2011-06-08T13:35:48Z</time>
      </trkpt>
      <trkpt lat="44.67869" lon="5.53295">
        <ele>844.9</ele>
        <time>2011-06-08T13:36:06Z</time>
      </trkpt>
      <trkpt lat="44.67849" lon="5.53303">
        <ele>837.6</ele>
        <time>2011-06-08T13:36:24Z</time>
      </trkpt>
      <trkpt lat="44.6783" lon="5.5332">
        <ele>833.7</ele>
        <time>2011-06-08T13:36:35Z</time>
      </trkpt>
      <trkpt lat="44.67833" lon="5.53285">
        <ele>825.7</ele>
        <time>2011-06-08T13:36:48Z</time>
      </trkpt>
      <trkpt lat="44.67836" lon="5.53264">
        <ele>819.1</ele>
        <time>2011-06-08T13:36:58Z</time>
      </trkpt>
      <trkpt lat="44.67819" lon="5.53279">
        <ele>815</ele>
        <time>2011-06-08T13:37:07Z</time>
      </trkpt>
      <trkpt lat="44.67809" lon="5.53277">
        <ele>809.2</ele>
        <time>2011-06-08T13:38:56Z</time>
      </trkpt>
      <trkpt lat="44.67796" lon="5.53301">
        <ele>807</ele>
        <time>2011-06-08T13:39:06Z</time>
      </trkpt>
      <trkpt lat="44.678" lon="5.53284">
        <ele>801.1</ele>
        <time>2011-06-08T13:39:18Z</time>
      </trkpt>
      <trkpt lat="44.678" lon="5.53259">
        <ele>795.4</ele>
        <time>2011-06-08T13:39:36Z</time>
      </trkpt>
      <trkpt lat="44.67781" lon="5.53284">
        <ele>789.1</ele>
        <time>2011-06-08T13:39:49Z</time>
      </trkpt>
      <trkpt lat="44.67748" lon="5.53315">
        <ele>782.6</ele>
        <time>2011-06-08T13:40:01Z</time>
      </trkpt>
      <trkpt lat="44.67733" lon="5.53328">
        <ele>775.2</ele>
        <time>2011-06-08T13:40:12Z</time>
      </trkpt>
      <trkpt lat="44.67709" lon="5.5333">
        <ele>768.3</ele>
        <time>2011-06-08T13:40:23Z</time>
      </trkpt>
      <trkpt lat="44.67704" lon="5.53346">
        <ele>765.7</ele>
        <time>2011-06-08T13:40:29Z</time>
      </trkpt>
      <trkpt lat="44.67706" lon="5.53358">
        <ele>761.6</ele>
        <time>2011-06-08T13:41:13Z</time>
      </trkpt>
      <trkpt lat="44.67725" lon="5.53381">
        <ele>757.9</ele>
        <time>2011-06-08T13:41:24Z</time>
      </trkpt>
      <trkpt lat="44.67734" lon="5.53403">
        <ele>752.4</ele>
        <time>2011-06-08T13:41:33Z</time>
      </trkpt>
      <trkpt lat="44.67733" lon="5.53428">
        <ele>748.9</ele>
        <time>2011-06-08T13:41:42Z</time>
      </trkpt>
      <trkpt lat="44.67725" lon="5.53439">
        <ele>742.3</ele>
        <time>2011-06-08T13:41:57Z</time>
      </trkpt>
      <trkpt lat="44.6771" lon="5.53459">
        <ele>739.4</ele>
        <time>2011-06-08T13:42:09Z</time>
      </trkpt>
      <trkpt lat="44.67695" lon="5.53479">
        <ele>734.2</ele>
        <time>2011-06-08T13:42:48Z</time>
      </trkpt>
      <trkpt lat="44.67706" lon="5.5344">
        <ele>729.8</ele>
        <time>2011-06-08T13:43:07Z</time>
      </trkpt>
      <trkpt lat="44.67704" lon="5.53436">
        <ele>727</ele>
        <time>2011-06-08T13:43:13Z</time>
      </trkpt>
      <trkpt lat="44.67664" lon="5.53488">
        <ele>718.6</ele>
        <time>2011-06-08T13:43:34Z</time>
      </trkpt>
      <trkpt lat="44.6767" lon="5.53452">
        <ele>708.7</ele>
        <time>2011-06-08T13:43:53Z</time>
      </trkpt>
      <trkpt lat="44.67658" lon="5.53466">
        <ele>703.2</ele>
        <time>2011-06-08T13:44:02Z</time>
      </trkpt>
      <trkpt lat="44.67632" lon="5.53487">
        <ele>695.8</ele>
        <time>2011-06-08T13:44:13Z</time>
      </trkpt>
      <trkpt lat="44.67644" lon="5.53443">
        <ele>687</ele>
        <time>2011-06-08T13:44:27Z</time>
      </trkpt>
      <trkpt lat="44.67641" lon="5.53432">
        <ele>681.3</ele>
        <time>2011-06-08T13:44:34Z</time>
      </trkpt>
      <trkpt lat="44.67634" lon="5.53423">
        <ele>675.5</ele>
        <time>2011-06-08T13:44:44Z</time>
      </trkpt>
      <trkpt lat="44.67623" lon="5.53422">
        <ele>669.1</ele>
        <time>2011-06-08T13:44:54Z</time>
      </trkpt>
      <trkpt lat="44.67612" lon="5.53416">
        <ele>661.6</ele>
        <time>2011-06-08T13:45:09Z</time>
      </trkpt>
      <trkpt lat="44.67588" lon="5.53431">
        <ele>655</ele>
        <time>2011-06-08T13:45:20Z</time>
      </trkpt>
      <trkpt lat="44.67575" lon="5.5344">
        <ele>650</ele>
        <time>2011-06-08T13:46:45Z</time>
      </trkpt>
      <trkpt lat="44.67577" lon="5.53436">
        <ele>648.8</ele>
        <time>2011-06-08T13:48:04Z</time>
      </trkpt>
      <trkpt lat="44.67565" lon="5.5345">
        <ele>649.6</ele>
        <time>2011-06-08T13:52:19Z</time>
      </trkpt>
      <trkpt lat="44.67568" lon="5.53446">
        <ele>649.3</ele>
        <time>2011-06-08T13:52:33Z</time>
      </trkpt>
      <trkpt lat="44.67572" lon="5.53439">
        <ele>650.5</ele>
        <time>2011-06-08T13:53:01Z</time>
      </trkpt>
      <trkpt lat="44.67575" lon="5.5344">
        <ele>650.8</ele>
        <time>2011-06-08T13:53:39Z</time>
      </trkpt>
      <trkpt lat="44.67605" lon="5.5327">
        <ele>641.5</ele>
        <time>2011-06-08T13:54:11Z</time>
      </trkpt>
      <trkpt lat="44.67596" lon="5.5327">
        <ele>638.9</ele>
        <time>2011-06-08T13:54:18Z</time>
      </trkpt>
      <trkpt lat="44.67558" lon="5.53345">
        <ele>640.3</ele>
        <time>2011-06-08T13:54:51Z</time>
      </trkpt>
      <trkpt lat="44.67511" lon="5.5352">
        <ele>642.5</ele>
        <time>2011-06-08T13:55:22Z</time>
      </trkpt>
      <trkpt lat="44.67456" lon="5.53584">
        <ele>643.7</ele>
        <time>2011-06-08T13:55:35Z</time>
      </trkpt>
      <trkpt lat="44.67436" lon="5.53593">
        <ele>644.2</ele>
        <time>2011-06-08T13:55:39Z</time>
      </trkpt>
      <trkpt lat="44.67392" lon="5.53596">
        <ele>645.9</ele>
        <time>2011-06-08T13:55:48Z</time>
      </trkpt>
      <trkpt lat="44.67255" lon="5.535">
        <ele>649.2</ele>
        <time>2011-06-08T13:56:18Z</time>
      </trkpt>
      <trkpt lat="44.67245" lon="5.53499">
        <ele>648.8</ele>
        <time>2011-06-08T13:56:20Z</time>
      </trkpt>
      <trkpt lat="44.67226" lon="5.53518">
        <ele>649.6</ele>
        <time>2011-06-08T13:56:25Z</time>
      </trkpt>
      <trkpt lat="44.67219" lon="5.53605">
        <ele>649.4</ele>
        <time>2011-06-08T13:56:37Z</time>
      </trkpt>
      <trkpt lat="44.67125" lon="5.53837">
        <ele>652.1</ele>
        <time>2011-06-08T13:57:15Z</time>
      </trkpt>
      <trkpt lat="44.66796" lon="5.54297">
        <ele>662</ele>
        <time>2011-06-08T13:58:48Z</time>
      </trkpt>
      <trkpt lat="44.66788" lon="5.54336">
        <ele>662.6</ele>
        <time>2011-06-08T13:58:54Z</time>
      </trkpt>
      <trkpt lat="44.66792" lon="5.54363">
        <ele>664.1</ele>
        <time>2011-06-08T13:58:58Z</time>
      </trkpt>
      <trkpt lat="44.66811" lon="5.54391">
        <ele>664</ele>
        <time>2011-06-08T13:59:04Z</time>
      </trkpt>
      <trkpt lat="44.66818" lon="5.5441">
        <ele>664.6</ele>
        <time>2011-06-08T13:59:08Z</time>
      </trkpt>
      <trkpt lat="44.6682" lon="5.54437">
        <ele>664.7</ele>
        <time>2011-06-08T13:59:12Z</time>
      </trkpt>
      <trkpt lat="44.6681" lon="5.5447">
        <ele>665.1</ele>
        <time>2011-06-08T13:59:17Z</time>
      </trkpt>
      <trkpt lat="44.66683" lon="5.54608">
        <ele>669.4</ele>
        <time>2011-06-08T13:59:52Z</time>
      </trkpt>
      <trkpt lat="44.66595" lon="5.54669">
        <ele>672.8</ele>
        <time>2011-06-08T14:00:15Z</time>
      </trkpt>
      <trkpt lat="44.66593" lon="5.54674">
        <ele>673.2</ele>
        <time>2011-06-08T14:00:16Z</time>
      </trkpt>
      <trkpt lat="44.66595" lon="5.54847">
        <ele>674.9</ele>
        <time>2011-06-08T14:00:38Z</time>
      </trkpt>
      <trkpt lat="44.66594" lon="5.54864">
        <ele>675.8</ele>
        <time>2011-06-08T14:00:51Z</time>
      </trkpt>
      <trkpt lat="44.66613" lon="5.54945">
        <ele>676</ele>
        <time>2011-06-08T14:01:14Z</time>
      </trkpt>
      <trkpt lat="44.66626" lon="5.54983">
        <ele>677.5</ele>
        <time>2011-06-08T14:01:24Z</time>
      </trkpt>
      <trkpt lat="44.66641" lon="5.55002">
        <ele>678.7</ele>
        <time>2011-06-08T14:01:30Z</time>
      </trkpt>
      <trkpt lat="44.6666" lon="5.55048">
        <ele>681.6</ele>
        <time>2011-06-08T14:01:46Z</time>
      </trkpt>
      <trkpt lat="44.66667" lon="5.55073">
        <ele>684.2</ele>
        <time>2011-06-08T14:01:55Z</time>
      </trkpt>
      <trkpt lat="44.66682" lon="5.551">
        <ele>685.5</ele>
        <time>2011-06-08T14:02:06Z</time>
      </trkpt>
      <trkpt lat="44.66685" lon="5.55122">
        <ele>687.6</ele>
        <time>2011-06-08T14:02:16Z</time>
      </trkpt>
      <trkpt lat="44.66736" lon="5.55217">
        <ele>694.5</ele>
        <time>2011-06-08T14:02:58Z</time>
      </trkpt>
      <trkpt lat="44.66745" lon="5.55241">
        <ele>696.1</ele>
        <time>2011-06-08T14:03:11Z</time>
      </trkpt>
      <trkpt lat="44.66772" lon="5.55289">
        <ele>700</ele>
        <time>2011-06-08T14:03:36Z</time>
      </trkpt>
      <trkpt lat="44.66792" lon="5.55314">
        <ele>701.8</ele>
        <time>2011-06-08T14:03:49Z</time>
      </trkpt>
      <trkpt lat="44.66787" lon="5.5531">
        <ele>702</ele>
        <time>2011-06-08T14:03:59Z</time>
      </trkpt>
      <trkpt lat="44.66756" lon="5.5527">
        <ele>706.4</ele>
        <time>2011-06-08T14:04:24Z</time>
      </trkpt>
      <trkpt lat="44.66739" lon="5.55263">
        <ele>709.8</ele>
        <time>2011-06-08T14:04:41Z</time>
      </trkpt>
      <trkpt lat="44.66735" lon="5.55249">
        <ele>711.8</ele>
        <time>2011-06-08T14:04:50Z</time>
      </trkpt>
      <trkpt lat="44.66701" lon="5.55213">
        <ele>716.3</ele>
        <time>2011-06-08T14:05:17Z</time>
      </trkpt>
      <trkpt lat="44.66699" lon="5.55223">
        <ele>718</ele>
        <time>2011-06-08T14:05:25Z</time>
      </trkpt>
      <trkpt lat="44.66716" lon="5.55259">
        <ele>722.5</ele>
        <time>2011-06-08T14:05:50Z</time>
      </trkpt>
      <trkpt lat="44.66729" lon="5.55296">
        <ele>725.4</ele>
        <time>2011-06-08T14:06:10Z</time>
      </trkpt>
      <trkpt lat="44.66745" lon="5.5532">
        <ele>726.8</ele>
        <time>2011-06-08T14:06:26Z</time>
      </trkpt>
      <trkpt lat="44.66757" lon="5.55339">
        <ele>729.2</ele>
        <time>2011-06-08T14:06:42Z</time>
      </trkpt>
      <trkpt lat="44.66737" lon="5.5531">
        <ele>732.1</ele>
        <time>2011-06-08T14:07:03Z</time>
      </trkpt>
      <trkpt lat="44.66718" lon="5.55298">
        <ele>735</ele>
        <time>2011-06-08T14:07:20Z</time>
      </trkpt>
      <trkpt lat="44.66697" lon="5.55267">
        <ele>737.6</ele>
        <time>2011-06-08T14:07:41Z</time>
      </trkpt>
      <trkpt lat="44.6669" lon="5.55268">
        <ele>739.2</ele>
        <time>2011-06-08T14:07:48Z</time>
      </trkpt>
      <trkpt lat="44.66711" lon="5.55312">
        <ele>742.6</ele>
        <time>2011-06-08T14:08:18Z</time>
      </trkpt>
      <trkpt lat="44.66758" lon="5.55372">
        <ele>748.2</ele>
        <time>2011-06-08T14:08:57Z</time>
      </trkpt>
      <trkpt lat="44.66758" lon="5.55375">
        <ele>748.4</ele>
        <time>2011-06-08T14:08:59Z</time>
      </trkpt>
      <trkpt lat="44.6673" lon="5.55337">
        <ele>751.1</ele>
        <time>2011-06-08T14:09:27Z</time>
      </trkpt>
      <trkpt lat="44.66709" lon="5.55329">
        <ele>753.8</ele>
        <time>2011-06-08T14:09:43Z</time>
      </trkpt>
      <trkpt lat="44.66701" lon="5.5531">
        <ele>756.3</ele>
        <time>2011-06-08T14:09:56Z</time>
      </trkpt>
      <trkpt lat="44.66675" lon="5.55282">
        <ele>758.1</ele>
        <time>2011-06-08T14:10:17Z</time>
      </trkpt>
      <trkpt lat="44.66668" lon="5.55257">
        <ele>760</ele>
        <time>2011-06-08T14:10:28Z</time>
      </trkpt>
      <trkpt lat="44.66654" lon="5.55238">
        <ele>762.7</ele>
        <time>2011-06-08T14:10:40Z</time>
      </trkpt>
      <trkpt lat="44.66663" lon="5.55252">
        <ele>763.5</ele>
        <time>2011-06-08T14:10:54Z</time>
      </trkpt>
      <trkpt lat="44.66663" lon="5.5528">
        <ele>765.7</ele>
        <time>2011-06-08T14:11:10Z</time>
      </trkpt>
      <trkpt lat="44.66684" lon="5.55305">
        <ele>768.5</ele>
        <time>2011-06-08T14:11:26Z</time>
      </trkpt>
      <trkpt lat="44.66689" lon="5.55338">
        <ele>770.6</ele>
        <time>2011-06-08T14:11:42Z</time>
      </trkpt>
      <trkpt lat="44.66716" lon="5.55358">
        <ele>773.3</ele>
        <time>2011-06-08T14:12:00Z</time>
      </trkpt>
      <trkpt lat="44.66715" lon="5.55363">
        <ele>774.6</ele>
        <time>2011-06-08T14:12:06Z</time>
      </trkpt>
      <trkpt lat="44.66683" lon="5.55344">
        <ele>778.5</ele>
        <time>2011-06-08T14:12:31Z</time>
      </trkpt>
      <trkpt lat="44.66677" lon="5.55315">
        <ele>780.9</ele>
        <time>2011-06-08T14:12:46Z</time>
      </trkpt>
      <trkpt lat="44.6666" lon="5.55301">
        <ele>782.6</ele>
        <time>2011-06-08T14:13:00Z</time>
      </trkpt>
      <trkpt lat="44.66649" lon="5.55267">
        <ele>785.3</ele>
        <time>2011-06-08T14:13:17Z</time>
      </trkpt>
      <trkpt lat="44.66631" lon="5.5525">
        <ele>788</ele>
        <time>2011-06-08T14:13:31Z</time>
      </trkpt>
      <trkpt lat="44.66621" lon="5.55236">
        <ele>789.4</ele>
        <time>2011-06-08T14:13:38Z</time>
      </trkpt>
      <trkpt lat="44.66608" lon="5.55201">
        <ele>791.8</ele>
        <time>2011-06-08T14:13:58Z</time>
      </trkpt>
      <trkpt lat="44.66597" lon="5.55191">
        <ele>793.6</ele>
        <time>2011-06-08T14:14:06Z</time>
      </trkpt>
      <trkpt lat="44.66579" lon="5.55114">
        <ele>798.2</ele>
        <time>2011-06-08T14:14:42Z</time>
      </trkpt>
      <trkpt lat="44.66568" lon="5.55079">
        <ele>799.5</ele>
        <time>2011-06-08T14:14:58Z</time>
      </trkpt>
      <trkpt lat="44.66557" lon="5.55064">
        <ele>800.6</ele>
        <time>2011-06-08T14:15:07Z</time>
      </trkpt>
      <trkpt lat="44.66502" lon="5.55033">
        <ele>806.9</ele>
        <time>2011-06-08T14:15:45Z</time>
      </trkpt>
      <trkpt lat="44.66524" lon="5.55053">
        <ele>809</ele>
        <time>2011-06-08T14:16:06Z</time>
      </trkpt>
      <trkpt lat="44.66546" lon="5.55083">
        <ele>814.1</ele>
        <time>2011-06-08T14:16:27Z</time>
      </trkpt>
      <trkpt lat="44.66551" lon="5.55115">
        <ele>814.8</ele>
        <time>2011-06-08T14:16:42Z</time>
      </trkpt>
      <trkpt lat="44.66554" lon="5.55149">
        <ele>817.5</ele>
        <time>2011-06-08T14:16:58Z</time>
      </trkpt>
      <trkpt lat="44.66558" lon="5.55206">
        <ele>821.3</ele>
        <time>2011-06-08T14:17:24Z</time>
      </trkpt>
      <trkpt lat="44.66574" lon="5.55231">
        <ele>824.2</ele>
        <time>2011-06-08T14:17:37Z</time>
      </trkpt>
      <trkpt lat="44.66584" lon="5.55268">
        <ele>824.5</ele>
        <time>2011-06-08T14:17:54Z</time>
      </trkpt>
      <trkpt lat="44.66598" lon="5.55274">
        <ele>823.6</ele>
        <time>2011-06-08T14:18:01Z</time>
      </trkpt>
      <trkpt lat="44.66614" lon="5.55276">
        <ele>824.9</ele>
        <time>2011-06-08T14:18:10Z</time>
      </trkpt>
      <trkpt lat="44.66622" lon="5.55316">
        <ele>827</ele>
        <time>2011-06-08T14:18:25Z</time>
      </trkpt>
      <trkpt lat="44.66616" lon="5.55356">
        <ele>830.3</ele>
        <time>2011-06-08T14:18:42Z</time>
      </trkpt>
      <trkpt lat="44.66617" lon="5.55369">
        <ele>832.1</ele>
        <time>2011-06-08T14:18:48Z</time>
      </trkpt>
      <trkpt lat="44.66623" lon="5.55405">
        <ele>832.8</ele>
        <time>2011-06-08T14:19:05Z</time>
      </trkpt>
      <trkpt lat="44.66633" lon="5.55419">
        <ele>834.8</ele>
        <time>2011-06-08T14:19:14Z</time>
      </trkpt>
      <trkpt lat="44.66663" lon="5.55441">
        <ele>838.3</ele>
        <time>2011-06-08T14:19:39Z</time>
      </trkpt>
      <trkpt lat="44.66681" lon="5.55466">
        <ele>841.9</ele>
        <time>2011-06-08T14:19:54Z</time>
      </trkpt>
      <trkpt lat="44.66708" lon="5.5551">
        <ele>845.3</ele>
        <time>2011-06-08T14:20:16Z</time>
      </trkpt>
      <trkpt lat="44.66714" lon="5.55524">
        <ele>846.7</ele>
        <time>2011-06-08T14:20:23Z</time>
      </trkpt>
      <trkpt lat="44.66723" lon="5.5556">
        <ele>848.2</ele>
        <time>2011-06-08T14:20:40Z</time>
      </trkpt>
      <trkpt lat="44.66732" lon="5.55601">
        <ele>849.6</ele>
        <time>2011-06-08T14:21:00Z</time>
      </trkpt>
      <trkpt lat="44.66739" lon="5.55616">
        <ele>850.3</ele>
        <time>2011-06-08T14:21:08Z</time>
      </trkpt>
      <trkpt lat="44.66782" lon="5.55652">
        <ele>855.3</ele>
        <time>2011-06-08T14:21:38Z</time>
      </trkpt>
      <trkpt lat="44.66791" lon="5.55681">
        <ele>857</ele>
        <time>2011-06-08T14:21:54Z</time>
      </trkpt>
      <trkpt lat="44.6682" lon="5.55718">
        <ele>860.9</ele>
        <time>2011-06-08T14:22:19Z</time>
      </trkpt>
      <trkpt lat="44.66836" lon="5.55738">
        <ele>863.2</ele>
        <time>2011-06-08T14:22:42Z</time>
      </trkpt>
      <trkpt lat="44.66839" lon="5.55744">
        <ele>864.5</ele>
        <time>2011-06-08T14:24:25Z</time>
      </trkpt>
      <trkpt lat="44.6685" lon="5.55761">
        <ele>863.7</ele>
        <time>2011-06-08T14:24:46Z</time>
      </trkpt>
      <trkpt lat="44.66866" lon="5.55795">
        <ele>867.2</ele>
        <time>2011-06-08T14:25:04Z</time>
      </trkpt>
      <trkpt lat="44.66873" lon="5.55814">
        <ele>868.2</ele>
        <time>2011-06-08T14:25:35Z</time>
      </trkpt>
      <trkpt lat="44.66872" lon="5.55821">
        <ele>868.7</ele>
        <time>2011-06-08T14:26:22Z</time>
      </trkpt>
      <trkpt lat="44.66876" lon="5.55816">
        <ele>868.7</ele>
        <time>2011-06-08T14:28:21Z</time>
      </trkpt>
      <trkpt lat="44.6687" lon="5.55822">
        <ele>868.7</ele>
        <time>2011-06-08T14:29:18Z</time>
      </trkpt>
      <trkpt lat="44.66876" lon="5.55819">
        <ele>868.4</ele>
        <time>2011-06-08T14:29:46Z</time>
      </trkpt>
      <trkpt lat="44.66872" lon="5.55825">
        <ele>869.7</ele>
        <time>2011-06-08T14:30:33Z</time>
      </trkpt>
      <trkpt lat="44.66864" lon="5.55835">
        <ele>869.2</ele>
        <time>2011-06-08T14:31:05Z</time>
      </trkpt>
      <trkpt lat="44.66864" lon="5.55833">
        <ele>869.7</ele>
        <time>2011-06-08T14:31:42Z</time>
      </trkpt>
      <trkpt lat="44.66869" lon="5.55825">
        <ele>868.4</ele>
        <time>2011-06-08T14:32:17Z</time>
      </trkpt>
      <trkpt lat="44.66869" lon="5.55825">
        <ele>869.5</ele>
        <time>2011-06-08T14:32:54Z</time>
      </trkpt>
      <trkpt lat="44.66872" lon="5.55824">
        <ele>867.5</ele>
        <time>2011-06-08T14:33:23Z</time>
      </trkpt>
      <trkpt lat="44.66876" lon="5.55818">
        <ele>868.7</ele>
        <time>2011-06-08T14:34:26Z</time>
      </trkpt>
      <trkpt lat="44.66883" lon="5.55821">
        <ele>868.3</ele>
        <time>2011-06-08T14:35:02Z</time>
      </trkpt>
      <trkpt lat="44.66886" lon="5.55835">
        <ele>869</ele>
        <time>2011-06-08T14:35:39Z</time>
      </trkpt>
      <trkpt lat="44.66879" lon="5.55863">
        <ele>867.7</ele>
        <time>2011-06-08T14:36:02Z</time>
      </trkpt>
      <trkpt lat="44.66876" lon="5.5589">
        <ele>865.8</ele>
        <time>2011-06-08T14:36:24Z</time>
      </trkpt>
      <trkpt lat="44.66883" lon="5.5589">
        <ele>866.6</ele>
        <time>2011-06-08T14:36:45Z</time>
      </trkpt>
      <trkpt lat="44.66911" lon="5.5588">
        <ele>864.9</ele>
        <time>2011-06-08T14:37:20Z</time>
      </trkpt>
      <trkpt lat="44.66943" lon="5.55877">
        <ele>864.1</ele>
        <time>2011-06-08T14:37:39Z</time>
      </trkpt>
      <trkpt lat="44.66967" lon="5.55883">
        <ele>864.9</ele>
        <time>2011-06-08T14:37:52Z</time>
      </trkpt>
      <trkpt lat="44.66982" lon="5.55878">
        <ele>866.2</ele>
        <time>2011-06-08T14:38:00Z</time>
      </trkpt>
      <trkpt lat="44.67006" lon="5.55887">
        <ele>866</ele>
        <time>2011-06-08T14:38:10Z</time>
      </trkpt>
      <trkpt lat="44.6702" lon="5.55919">
        <ele>862.8</ele>
        <time>2011-06-08T14:38:20Z</time>
      </trkpt>
      <trkpt lat="44.67036" lon="5.55934">
        <ele>861.2</ele>
        <time>2011-06-08T14:38:33Z</time>
      </trkpt>
      <trkpt lat="44.67045" lon="5.55968">
        <ele>856.8</ele>
        <time>2011-06-08T14:38:41Z</time>
      </trkpt>
      <trkpt lat="44.67043" lon="5.55986">
        <ele>856</ele>
        <time>2011-06-08T14:38:45Z</time>
      </trkpt>
      <trkpt lat="44.67051" lon="5.56006">
        <ele>854.1</ele>
        <time>2011-06-08T14:38:53Z</time>
      </trkpt>
      <trkpt lat="44.67109" lon="5.56028">
        <ele>851.2</ele>
        <time>2011-06-08T14:39:18Z</time>
      </trkpt>
      <trkpt lat="44.6713" lon="5.56032">
        <ele>851.5</ele>
        <time>2011-06-08T14:39:56Z</time>
      </trkpt>
      <trkpt lat="44.67133" lon="5.5604">
        <ele>850.4</ele>
        <time>2011-06-08T14:40:22Z</time>
      </trkpt>
      <trkpt lat="44.67151" lon="5.56044">
        <ele>850.4</ele>
        <time>2011-06-08T14:40:40Z</time>
      </trkpt>
      <trkpt lat="44.67163" lon="5.56068">
        <ele>848.9</ele>
        <time>2011-06-08T14:40:52Z</time>
      </trkpt>
      <trkpt lat="44.67191" lon="5.56073">
        <ele>847.1</ele>
        <time>2011-06-08T14:41:06Z</time>
      </trkpt>
      <trkpt lat="44.67214" lon="5.56098">
        <ele>843.9</ele>
        <time>2011-06-08T14:41:20Z</time>
      </trkpt>
      <trkpt lat="44.67242" lon="5.56103">
        <ele>842.3</ele>
        <time>2011-06-08T14:41:33Z</time>
      </trkpt>
      <trkpt lat="44.67263" lon="5.56123">
        <ele>840.8</ele>
        <time>2011-06-08T14:41:43Z</time>
      </trkpt>
      <trkpt lat="44.67282" lon="5.56188">
        <ele>837</ele>
        <time>2011-06-08T14:42:05Z</time>
      </trkpt>
      <trkpt lat="44.67286" lon="5.56229">
        <ele>835.6</ele>
        <time>2011-06-08T14:42:22Z</time>
      </trkpt>
      <trkpt lat="44.67277" lon="5.56272">
        <ele>834.1</ele>
        <time>2011-06-08T14:42:42Z</time>
      </trkpt>
      <trkpt lat="44.67264" lon="5.56301">
        <ele>833.2</ele>
        <time>2011-06-08T14:43:03Z</time>
      </trkpt>
      <trkpt lat="44.67267" lon="5.56336">
        <ele>833.4</ele>
        <time>2011-06-08T14:43:31Z</time>
      </trkpt>
      <trkpt lat="44.67266" lon="5.56362">
        <ele>834</ele>
        <time>2011-06-08T14:44:01Z</time>
      </trkpt>
      <trkpt lat="44.67277" lon="5.56387">
        <ele>834.7</ele>
        <time>2011-06-08T14:44:24Z</time>
      </trkpt>
      <trkpt lat="44.67285" lon="5.56411">
        <ele>833</ele>
        <time>2011-06-08T14:44:42Z</time>
      </trkpt>
      <trkpt lat="44.67288" lon="5.56388">
        <ele>832.7</ele>
        <time>2011-06-08T14:45:21Z</time>
      </trkpt>
      <trkpt lat="44.67281" lon="5.56363">
        <ele>833.5</ele>
        <time>2011-06-08T14:45:48Z</time>
      </trkpt>
      <trkpt lat="44.67291" lon="5.56368">
        <ele>833.6</ele>
        <time>2011-06-08T14:46:14Z</time>
      </trkpt>
      <trkpt lat="44.67297" lon="5.56376">
        <ele>834.8</ele>
        <time>2011-06-08T14:46:44Z</time>
      </trkpt>
      <trkpt lat="44.67326" lon="5.56392">
        <ele>838.3</ele>
        <time>2011-06-08T14:47:18Z</time>
      </trkpt>
      <trkpt lat="44.67357" lon="5.56399">
        <ele>841.5</ele>
        <time>2011-06-08T14:47:42Z</time>
      </trkpt>
      <trkpt lat="44.6738" lon="5.56396">
        <ele>842.8</ele>
        <time>2011-06-08T14:48:11Z</time>
      </trkpt>
      <trkpt lat="44.67402" lon="5.56406">
        <ele>841.2</ele>
        <time>2011-06-08T14:48:28Z</time>
      </trkpt>
      <trkpt lat="44.67433" lon="5.56399">
        <ele>846.4</ele>
        <time>2011-06-08T14:48:58Z</time>
      </trkpt>
      <trkpt lat="44.67449" lon="5.5638">
        <ele>847.5</ele>
        <time>2011-06-08T14:49:19Z</time>
      </trkpt>
      <trkpt lat="44.67463" lon="5.56381">
        <ele>849.8</ele>
        <time>2011-06-08T14:49:32Z</time>
      </trkpt>
      <trkpt lat="44.67483" lon="5.56388">
        <ele>851.9</ele>
        <time>2011-06-08T14:49:58Z</time>
      </trkpt>
      <trkpt lat="44.67493" lon="5.56385">
        <ele>853.1</ele>
        <time>2011-06-08T14:50:18Z</time>
      </trkpt>
      <trkpt lat="44.67512" lon="5.56394">
        <ele>859.6</ele>
        <time>2011-06-08T14:51:22Z</time>
      </trkpt>
      <trkpt lat="44.67518" lon="5.56405">
        <ele>862.9</ele>
        <time>2011-06-08T14:51:59Z</time>
      </trkpt>
      <trkpt lat="44.67536" lon="5.56426">
        <ele>869.6</ele>
        <time>2011-06-08T14:52:33Z</time>
      </trkpt>
      <trkpt lat="44.67536" lon="5.56462">
        <ele>870.1</ele>
        <time>2011-06-08T14:53:14Z</time>
      </trkpt>
      <trkpt lat="44.67532" lon="5.56489">
        <ele>873.4</ele>
        <time>2011-06-08T14:53:34Z</time>
      </trkpt>
      <trkpt lat="44.6752" lon="5.56523">
        <ele>875.6</ele>
        <time>2011-06-08T14:53:55Z</time>
      </trkpt>
      <trkpt lat="44.67504" lon="5.56543">
        <ele>879.7</ele>
        <time>2011-06-08T14:54:14Z</time>
      </trkpt>
      <trkpt lat="44.67488" lon="5.56576">
        <ele>875.4</ele>
        <time>2011-06-08T14:54:27Z</time>
      </trkpt>
      <trkpt lat="44.67444" lon="5.56623">
        <ele>870.3</ele>
        <time>2011-06-08T14:55:23Z</time>
      </trkpt>
      <trkpt lat="44.6745" lon="5.56636">
        <ele>863.1</ele>
        <time>2011-06-08T14:56:02Z</time>
      </trkpt>
      <trkpt lat="44.67457" lon="5.56638">
        <ele>863.4</ele>
        <time>2011-06-08T14:57:00Z</time>
      </trkpt>
      <trkpt lat="44.67443" lon="5.56664">
        <ele>857.2</ele>
        <time>2011-06-08T14:57:49Z</time>
      </trkpt>
      <trkpt lat="44.67446" lon="5.5668">
        <ele>851.2</ele>
        <time>2011-06-08T14:58:09Z</time>
      </trkpt>
      <trkpt lat="44.67444" lon="5.56683">
        <ele>850.8</ele>
        <time>2011-06-08T14:58:20Z</time>
      </trkpt>
      <trkpt lat="44.67468" lon="5.56645">
        <ele>848.5</ele>
        <time>2011-06-08T14:58:51Z</time>
      </trkpt>
      <trkpt lat="44.67466" lon="5.56657">
        <ele>825.5</ele>
        <time>2011-06-08T14:59:20Z</time>
      </trkpt>
      <trkpt lat="44.67479" lon="5.56663">
        <ele>823.8</ele>
        <time>2011-06-08T15:00:08Z</time>
      </trkpt>
      <trkpt lat="44.67481" lon="5.56657">
        <ele>821.3</ele>
        <time>2011-06-08T15:00:15Z</time>
      </trkpt>
      <trkpt lat="44.67515" lon="5.56637">
        <ele>808.5</ele>
        <time>2011-06-08T15:00:33Z</time>
      </trkpt>
      <trkpt lat="44.67521" lon="5.56626">
        <ele>807.4</ele>
        <time>2011-06-08T15:00:36Z</time>
      </trkpt>
      <trkpt lat="44.67531" lon="5.56594">
        <ele>803.2</ele>
        <time>2011-06-08T15:00:45Z</time>
      </trkpt>
      <trkpt lat="44.67576" lon="5.56587">
        <ele>799.5</ele>
        <time>2011-06-08T15:01:03Z</time>
      </trkpt>
      <trkpt lat="44.67592" lon="5.56581">
        <ele>798.7</ele>
        <time>2011-06-08T15:01:10Z</time>
      </trkpt>
      <trkpt lat="44.67609" lon="5.56563">
        <ele>796.6</ele>
        <time>2011-06-08T15:01:18Z</time>
      </trkpt>
      <trkpt lat="44.67624" lon="5.56527">
        <ele>792.6</ele>
        <time>2011-06-08T15:01:27Z</time>
      </trkpt>
      <trkpt lat="44.67645" lon="5.565">
        <ele>789.2</ele>
        <time>2011-06-08T15:01:40Z</time>
      </trkpt>
      <trkpt lat="44.6767" lon="5.56456">
        <ele>780.3</ele>
        <time>2011-06-08T15:01:55Z</time>
      </trkpt>
      <trkpt lat="44.67657" lon="5.56464">
        <ele>773.6</ele>
        <time>2011-06-08T15:02:06Z</time>
      </trkpt>
      <trkpt lat="44.67651" lon="5.56471">
        <ele>769</ele>
        <time>2011-06-08T15:02:14Z</time>
      </trkpt>
      <trkpt lat="44.67653" lon="5.56465">
        <ele>766.5</ele>
        <time>2011-06-08T15:02:28Z</time>
      </trkpt>
      <trkpt lat="44.67665" lon="5.56475">
        <ele>761.4</ele>
        <time>2011-06-08T15:02:52Z</time>
      </trkpt>
      <trkpt lat="44.67675" lon="5.56471">
        <ele>756.2</ele>
        <time>2011-06-08T15:03:12Z</time>
      </trkpt>
      <trkpt lat="44.67672" lon="5.56438">
        <ele>748.7</ele>
        <time>2011-06-08T15:03:28Z</time>
      </trkpt>
      <trkpt lat="44.67653" lon="5.56401">
        <ele>740.8</ele>
        <time>2011-06-08T15:03:43Z</time>
      </trkpt>
      <trkpt lat="44.67656" lon="5.56387">
        <ele>737.9</ele>
        <time>2011-06-08T15:03:49Z</time>
      </trkpt>
      <trkpt lat="44.67662" lon="5.56377">
        <ele>736.2</ele>
        <time>2011-06-08T15:04:12Z</time>
      </trkpt>
      <trkpt lat="44.67649" lon="5.56381">
        <ele>734.7</ele>
        <time>2011-06-08T15:04:33Z</time>
      </trkpt>
      <trkpt lat="44.67663" lon="5.56401">
        <ele>728.9</ele>
        <time>2011-06-08T15:04:50Z</time>
      </trkpt>
      <trkpt lat="44.67672" lon="5.56425">
        <ele>720.4</ele>
        <time>2011-06-08T15:05:22Z</time>
      </trkpt>
      <trkpt lat="44.67669" lon="5.56422">
        <ele>718.7</ele>
        <time>2011-06-08T15:05:47Z</time>
      </trkpt>
      <trkpt lat="44.67668" lon="5.56394">
        <ele>711.4</ele>
        <time>2011-06-08T15:06:19Z</time>
      </trkpt>
      <trkpt lat="44.6767" lon="5.56381">
        <ele>711.5</ele>
        <time>2011-06-08T15:07:20Z</time>
      </trkpt>
      <trkpt lat="44.67669" lon="5.56383">
        <ele>710.5</ele>
        <time>2011-06-08T15:07:49Z</time>
      </trkpt>
      <trkpt lat="44.6768" lon="5.56352">
        <ele>716.4</ele>
        <time>2011-06-08T15:08:37Z</time>
      </trkpt>
      <trkpt lat="44.67671" lon="5.56353">
        <ele>717.2</ele>
        <time>2011-06-08T15:09:42Z</time>
      </trkpt>
      <trkpt lat="44.67701" lon="5.56373">
        <ele>714.7</ele>
        <time>2011-06-08T15:10:03Z</time>
      </trkpt>
      <trkpt lat="44.67805" lon="5.56489">
        <ele>716.2</ele>
        <time>2011-06-08T15:10:31Z</time>
      </trkpt>
      <trkpt lat="44.67839" lon="5.56506">
        <ele>715.6</ele>
        <time>2011-06-08T15:10:41Z</time>
      </trkpt>
      <trkpt lat="44.6785" lon="5.56527">
        <ele>716.2</ele>
        <time>2011-06-08T15:10:45Z</time>
      </trkpt>
      <trkpt lat="44.67863" lon="5.5663">
        <ele>717.5</ele>
        <time>2011-06-08T15:11:02Z</time>
      </trkpt>
      <trkpt lat="44.67853" lon="5.56693">
        <ele>717.1</ele>
        <time>2011-06-08T15:11:14Z</time>
      </trkpt>
      <trkpt lat="44.6786" lon="5.56709">
        <ele>717.5</ele>
        <time>2011-06-08T15:11:18Z</time>
      </trkpt>
      <trkpt lat="44.67907" lon="5.56731">
        <ele>719.4</ele>
        <time>2011-06-08T15:11:29Z</time>
      </trkpt>
      <trkpt lat="44.67938" lon="5.56766">
        <ele>719.1</ele>
        <time>2011-06-08T15:11:38Z</time>
      </trkpt>
      <trkpt lat="44.68095" lon="5.57025">
        <ele>726</ele>
        <time>2011-06-08T15:12:34Z</time>
      </trkpt>
      <trkpt lat="44.68104" lon="5.57032">
        <ele>726.7</ele>
        <time>2011-06-08T15:12:37Z</time>
      </trkpt>
      <trkpt lat="44.68166" lon="5.57065">
        <ele>729</ele>
        <time>2011-06-08T15:12:57Z</time>
      </trkpt>
      <trkpt lat="44.68176" lon="5.57091">
        <ele>729.1</ele>
        <time>2011-06-08T15:13:03Z</time>
      </trkpt>
      <trkpt lat="44.6827" lon="5.57254">
        <ele>731.7</ele>
        <time>2011-06-08T15:13:33Z</time>
      </trkpt>
      <trkpt lat="44.68317" lon="5.57328">
        <ele>733.5</ele>
        <time>2011-06-08T15:13:48Z</time>
      </trkpt>
      <trkpt lat="44.68326" lon="5.57355">
        <ele>735.2</ele>
        <time>2011-06-08T15:13:53Z</time>
      </trkpt>
      <trkpt lat="44.68316" lon="5.57387">
        <ele>734.9</ele>
        <time>2011-06-08T15:14:01Z</time>
      </trkpt>
      <trkpt lat="44.68306" lon="5.57395">
        <ele>735.1</ele>
        <time>2011-06-08T15:14:10Z</time>
      </trkpt>
      <trkpt lat="44.68509" lon="5.57544">
        <ele>740.4</ele>
        <time>2011-06-08T15:14:57Z</time>
      </trkpt>
      <trkpt lat="44.68553" lon="5.57558">
        <ele>742</ele>
        <time>2011-06-08T15:15:06Z</time>
      </trkpt>
      <trkpt lat="44.68587" lon="5.5755">
        <ele>742.9</ele>
        <time>2011-06-08T15:15:18Z</time>
      </trkpt>
      <trkpt lat="44.68597" lon="5.57543">
        <ele>744.1</ele>
        <time>2011-06-08T15:15:24Z</time>
      </trkpt>
      <trkpt lat="44.68622" lon="5.57552">
        <ele>744.1</ele>
        <time>2011-06-08T15:15:34Z</time>
      </trkpt>
      <trkpt lat="44.68668" lon="5.57617">
        <ele>744.9</ele>
        <time>2011-06-08T15:15:50Z</time>
      </trkpt>
      <trkpt lat="44.68676" lon="5.57673">
        <ele>748.9</ele>
        <time>2011-06-08T15:16:05Z</time>
      </trkpt>
      <trkpt lat="44.68778" lon="5.57766">
        <ele>752.9</ele>
        <time>2011-06-08T15:16:28Z</time>
      </trkpt>
      <trkpt lat="44.68846" lon="5.57801">
        <ele>753.4</ele>
        <time>2011-06-08T15:16:39Z</time>
      </trkpt>
      <trkpt lat="44.68851" lon="5.57809">
        <ele>752.9</ele>
        <time>2011-06-08T15:16:42Z</time>
      </trkpt>
      <trkpt lat="44.68839" lon="5.57848">
        <ele>755.9</ele>
        <time>2011-06-08T15:16:53Z</time>
      </trkpt>
      <trkpt lat="44.68811" lon="5.57884">
        <ele>756.6</ele>
        <time>2011-06-08T15:17:04Z</time>
      </trkpt>
      <trkpt lat="44.68801" lon="5.57902">
        <ele>757.9</ele>
        <time>2011-06-08T15:17:10Z</time>
      </trkpt>
      <trkpt lat="44.68781" lon="5.57923">
        <ele>758.9</ele>
        <time>2011-06-08T15:17:18Z</time>
      </trkpt>
      <trkpt lat="44.68777" lon="5.57938">
        <ele>759.5</ele>
        <time>2011-06-08T15:17:25Z</time>
      </trkpt>
      <trkpt lat="44.68818" lon="5.57944">
        <ele>761.8</ele>
        <time>2011-06-08T15:17:39Z</time>
      </trkpt>
      <trkpt lat="44.68863" lon="5.57966">
        <ele>764.2</ele>
        <time>2011-06-08T15:17:54Z</time>
      </trkpt>
      <trkpt lat="44.68891" lon="5.57984">
        <ele>766</ele>
        <time>2011-06-08T15:18:05Z</time>
      </trkpt>
      <trkpt lat="44.68901" lon="5.57997">
        <ele>768</ele>
        <time>2011-06-08T15:18:13Z</time>
      </trkpt>
      <trkpt lat="44.68911" lon="5.58039">
        <ele>770</ele>
        <time>2011-06-08T15:18:29Z</time>
      </trkpt>
      <trkpt lat="44.68914" lon="5.58082">
        <ele>773.5</ele>
        <time>2011-06-08T15:18:45Z</time>
      </trkpt>
      <trkpt lat="44.69015" lon="5.58113">
        <ele>774.2</ele>
        <time>2011-06-08T15:21:37Z</time>
      </trkpt>
      <trkpt lat="44.69012" lon="5.58112">
        <ele>774.2</ele>
        <time>2011-06-08T15:21:38Z</time>
      </trkpt>
      <trkpt lat="44.68992" lon="5.58115">
        <ele>773.8</ele>
        <time>2011-06-08T15:22:24Z</time>
      </trkpt>
      <trkpt lat="44.69067" lon="5.58275">
        <ele>776.6</ele>
        <time>2011-06-08T15:24:53Z</time>
      </trkpt>
      <trkpt lat="44.69179" lon="5.58276">
        <ele>790.4</ele>
        <time>2011-06-08T15:25:24Z</time>
      </trkpt>
      <trkpt lat="44.6926" lon="5.58309">
        <ele>793.6</ele>
        <time>2011-06-08T15:25:48Z</time>
      </trkpt>
      <trkpt lat="44.69305" lon="5.58314">
        <ele>794.5</ele>
        <time>2011-06-08T15:26:08Z</time>
      </trkpt>
      <trkpt lat="44.69405" lon="5.58453">
        <ele>802.6</ele>
        <time>2011-06-08T15:26:58Z</time>
      </trkpt>
      <trkpt lat="44.69425" lon="5.58457">
        <ele>805</ele>
        <time>2011-06-08T15:27:11Z</time>
      </trkpt>
      <trkpt lat="44.69445" lon="5.58478">
        <ele>807.4</ele>
        <time>2011-06-08T15:27:26Z</time>
      </trkpt>
      <trkpt lat="44.69455" lon="5.58482">
        <ele>808.1</ele>
        <time>2011-06-08T15:27:31Z</time>
      </trkpt>
      <trkpt lat="44.69515" lon="5.58487">
        <ele>812.7</ele>
        <time>2011-06-08T15:27:59Z</time>
      </trkpt>
      <trkpt lat="44.69536" lon="5.58486">
        <ele>813.7</ele>
        <time>2011-06-08T15:28:09Z</time>
      </trkpt>
      <trkpt lat="44.69539" lon="5.58496">
        <ele>814.5</ele>
        <time>2011-06-08T15:28:15Z</time>
      </trkpt>
      <trkpt lat="44.69502" lon="5.58501">
        <ele>816.5</ele>
        <time>2011-06-08T15:28:32Z</time>
      </trkpt>
      <trkpt lat="44.69452" lon="5.58512">
        <ele>819.4</ele>
        <time>2011-06-08T15:28:55Z</time>
      </trkpt>
      <trkpt lat="44.69423" lon="5.58501">
        <ele>822.8</ele>
        <time>2011-06-08T15:29:10Z</time>
      </trkpt>
      <trkpt lat="44.69421" lon="5.58514">
        <ele>823.9</ele>
        <time>2011-06-08T15:29:17Z</time>
      </trkpt>
      <trkpt lat="44.69485" lon="5.58549">
        <ele>827.3</ele>
        <time>2011-06-08T15:29:48Z</time>
      </trkpt>
      <trkpt lat="44.69583" lon="5.58572">
        <ele>833.6</ele>
        <time>2011-06-08T15:30:41Z</time>
      </trkpt>
      <trkpt lat="44.69579" lon="5.58585">
        <ele>835.8</ele>
        <time>2011-06-08T15:30:50Z</time>
      </trkpt>
      <trkpt lat="44.69421" lon="5.58611">
        <ele>847.1</ele>
        <time>2011-06-08T15:32:15Z</time>
      </trkpt>
      <trkpt lat="44.69394" lon="5.5862">
        <ele>848.6</ele>
        <time>2011-06-08T15:32:34Z</time>
      </trkpt>
      <trkpt lat="44.69457" lon="5.58665">
        <ele>853.9</ele>
        <time>2011-06-08T15:33:13Z</time>
      </trkpt>
      <trkpt lat="44.69511" lon="5.58678">
        <ele>857</ele>
        <time>2011-06-08T15:33:40Z</time>
      </trkpt>
      <trkpt lat="44.69541" lon="5.58687">
        <ele>858.8</ele>
        <time>2011-06-08T15:33:55Z</time>
      </trkpt>
      <trkpt lat="44.69576" lon="5.58668">
        <ele>861.9</ele>
        <time>2011-06-08T15:34:14Z</time>
      </trkpt>
      <trkpt lat="44.69579" lon="5.58678">
        <ele>862.1</ele>
        <time>2011-06-08T15:34:21Z</time>
      </trkpt>
      <trkpt lat="44.69534" lon="5.58704">
        <ele>865.4</ele>
        <time>2011-06-08T15:34:48Z</time>
      </trkpt>
      <trkpt lat="44.6953" lon="5.58711">
        <ele>866.3</ele>
        <time>2011-06-08T15:34:52Z</time>
      </trkpt>
      <trkpt lat="44.69521" lon="5.58751">
        <ele>868.4</ele>
        <time>2011-06-08T15:35:08Z</time>
      </trkpt>
      <trkpt lat="44.69512" lon="5.58764">
        <ele>869.7</ele>
        <time>2011-06-08T15:35:15Z</time>
      </trkpt>
      <trkpt lat="44.69439" lon="5.58773">
        <ele>874</ele>
        <time>2011-06-08T15:35:56Z</time>
      </trkpt>
      <trkpt lat="44.69423" lon="5.5878">
        <ele>875.2</ele>
        <time>2011-06-08T15:36:05Z</time>
      </trkpt>
      <trkpt lat="44.6937" lon="5.58821">
        <ele>879.5</ele>
        <time>2011-06-08T15:36:38Z</time>
      </trkpt>
      <trkpt lat="44.69357" lon="5.58825">
        <ele>880.2</ele>
        <time>2011-06-08T15:36:45Z</time>
      </trkpt>
      <trkpt lat="44.69244" lon="5.58791">
        <ele>882.3</ele>
        <time>2011-06-08T15:38:25Z</time>
      </trkpt>
      <trkpt lat="44.69162" lon="5.58727">
        <ele>893.6</ele>
        <time>2011-06-08T15:39:24Z</time>
      </trkpt>
      <trkpt lat="44.68787" lon="5.58775">
        <ele>900.9</ele>
        <time>2011-06-08T15:43:33Z</time>
      </trkpt>
      <trkpt lat="44.68771" lon="5.58787">
        <ele>919.9</ele>
        <time>2011-06-08T15:43:39Z</time>
      </trkpt>
      <trkpt lat="44.68763" lon="5.58786">
        <ele>921.9</ele>
        <time>2011-06-08T15:43:41Z</time>
      </trkpt>
      <trkpt lat="44.68708" lon="5.58905">
        <ele>918.5</ele>
        <time>2011-06-08T15:44:25Z</time>
      </trkpt>
      <trkpt lat="44.68686" lon="5.58921">
        <ele>917.6</ele>
        <time>2011-06-08T15:44:30Z</time>
      </trkpt>
      <trkpt lat="44.6864" lon="5.58913">
        <ele>916.8</ele>
        <time>2011-06-08T15:44:42Z</time>
      </trkpt>
      <trkpt lat="44.68627" lon="5.58942">
        <ele>914.6</ele>
        <time>2011-06-08T15:44:49Z</time>
      </trkpt>
      <trkpt lat="44.68637" lon="5.58978">
        <ele>913.9</ele>
        <time>2011-06-08T15:44:55Z</time>
      </trkpt>
      <trkpt lat="44.68707" lon="5.59109">
        <ele>909.5</ele>
        <time>2011-06-08T15:45:18Z</time>
      </trkpt>
      <trkpt lat="44.68708" lon="5.59116">
        <ele>909.5</ele>
        <time>2011-06-08T15:45:19Z</time>
      </trkpt>
      <trkpt lat="44.68697" lon="5.59208">
        <ele>907.8</ele>
        <time>2011-06-08T15:45:33Z</time>
      </trkpt>
      <trkpt lat="44.68703" lon="5.59248">
        <ele>907.8</ele>
        <time>2011-06-08T15:45:39Z</time>
      </trkpt>
      <trkpt lat="44.687" lon="5.59261">
        <ele>908.2</ele>
        <time>2011-06-08T15:45:41Z</time>
      </trkpt>
      <trkpt lat="44.68642" lon="5.59369">
        <ele>904.7</ele>
        <time>2011-06-08T15:46:02Z</time>
      </trkpt>
      <trkpt lat="44.68655" lon="5.59394">
        <ele>944.9</ele>
        <time>2011-06-08T15:47:51Z</time>
      </trkpt>
      <trkpt lat="44.68668" lon="5.59397">
        <ele>944.7</ele>
        <time>2011-06-08T15:47:56Z</time>
      </trkpt>
      <trkpt lat="44.68693" lon="5.59378">
        <ele>943.7</ele>
        <time>2011-06-08T15:48:04Z</time>
      </trkpt>
      <trkpt lat="44.68709" lon="5.59376">
        <ele>943.9</ele>
        <time>2011-06-08T15:48:08Z</time>
      </trkpt>
      <trkpt lat="44.68728" lon="5.59389">
        <ele>942.8</ele>
        <time>2011-06-08T15:48:13Z</time>
      </trkpt>
      <trkpt lat="44.68752" lon="5.59432">
        <ele>942.3</ele>
        <time>2011-06-08T15:48:22Z</time>
      </trkpt>
      <trkpt lat="44.68769" lon="5.59493">
        <ele>942.6</ele>
        <time>2011-06-08T15:48:33Z</time>
      </trkpt>
      <trkpt lat="44.6878" lon="5.59504">
        <ele>941.6</ele>
        <time>2011-06-08T15:48:37Z</time>
      </trkpt>
      <trkpt lat="44.6881" lon="5.59517">
        <ele>940.9</ele>
        <time>2011-06-08T15:48:44Z</time>
      </trkpt>
      <trkpt lat="44.68845" lon="5.59503">
        <ele>940.3</ele>
        <time>2011-06-08T15:48:51Z</time>
      </trkpt>
      <trkpt lat="44.68855" lon="5.59506">
        <ele>940</ele>
        <time>2011-06-08T15:48:53Z</time>
      </trkpt>
      <trkpt lat="44.68899" lon="5.59553">
        <ele>938.4</ele>
        <time>2011-06-08T15:49:04Z</time>
      </trkpt>
      <trkpt lat="44.69034" lon="5.5958">
        <ele>936.8</ele>
        <time>2011-06-08T15:49:27Z</time>
      </trkpt>
      <trkpt lat="44.6904" lon="5.59584">
        <ele>936.7</ele>
        <time>2011-06-08T15:49:28Z</time>
      </trkpt>
      <trkpt lat="44.69111" lon="5.59693">
        <ele>935.1</ele>
        <time>2011-06-08T15:49:46Z</time>
      </trkpt>
      <trkpt lat="44.69165" lon="5.5986">
        <ele>931.3</ele>
        <time>2011-06-08T15:50:08Z</time>
      </trkpt>
      <trkpt lat="44.69166" lon="5.59898">
        <ele>932.5</ele>
        <time>2011-06-08T15:50:13Z</time>
      </trkpt>
      <trkpt lat="44.69177" lon="5.59914">
        <ele>932.4</ele>
        <time>2011-06-08T15:50:16Z</time>
      </trkpt>
      <trkpt lat="44.6922" lon="5.59927">
        <ele>930</ele>
        <time>2011-06-08T15:50:25Z</time>
      </trkpt>
      <trkpt lat="44.69234" lon="5.59943">
        <ele>931.5</ele>
        <time>2011-06-08T15:50:29Z</time>
      </trkpt>
      <trkpt lat="44.69238" lon="5.59963">
        <ele>932.6</ele>
        <time>2011-06-08T15:50:32Z</time>
      </trkpt>
      <trkpt lat="44.69236" lon="5.60061">
        <ele>934.8</ele>
        <time>2011-06-08T15:50:54Z</time>
      </trkpt>
      <trkpt lat="44.69252" lon="5.60133">
        <ele>938</ele>
        <time>2011-06-08T15:51:13Z</time>
      </trkpt>
      <trkpt lat="44.69311" lon="5.60231">
        <ele>940.6</ele>
        <time>2011-06-08T15:51:44Z</time>
      </trkpt>
      <trkpt lat="44.69314" lon="5.60253">
        <ele>941</ele>
        <time>2011-06-08T15:51:49Z</time>
      </trkpt>
      <trkpt lat="44.69307" lon="5.60287">
        <ele>942.7</ele>
        <time>2011-06-08T15:51:58Z</time>
      </trkpt>
      <trkpt lat="44.6931" lon="5.60309">
        <ele>943.1</ele>
        <time>2011-06-08T15:52:03Z</time>
      </trkpt>
      <trkpt lat="44.69337" lon="5.60382">
        <ele>943</ele>
        <time>2011-06-08T15:52:20Z</time>
      </trkpt>
      <trkpt lat="44.6935" lon="5.60516">
        <ele>946.2</ele>
        <time>2011-06-08T15:52:48Z</time>
      </trkpt>
      <trkpt lat="44.6935" lon="5.60573">
        <ele>946.8</ele>
        <time>2011-06-08T15:53:00Z</time>
      </trkpt>
      <trkpt lat="44.69357" lon="5.60601">
        <ele>947.9</ele>
        <time>2011-06-08T15:53:07Z</time>
      </trkpt>
      <trkpt lat="44.69415" lon="5.60703">
        <ele>949.6</ele>
        <time>2011-06-08T15:53:35Z</time>
      </trkpt>
      <trkpt lat="44.69421" lon="5.60727">
        <ele>950.1</ele>
        <time>2011-06-08T15:53:40Z</time>
      </trkpt>
      <trkpt lat="44.69424" lon="5.6085">
        <ele>953.3</ele>
        <time>2011-06-08T15:54:05Z</time>
      </trkpt>
      <trkpt lat="44.69402" lon="5.60959">
        <ele>957</ele>
        <time>2011-06-08T15:54:29Z</time>
      </trkpt>
      <trkpt lat="44.69405" lon="5.6099">
        <ele>957.6</ele>
        <time>2011-06-08T15:54:36Z</time>
      </trkpt>
      <trkpt lat="44.69493" lon="5.61225">
        <ele>969.7</ele>
        <time>2011-06-08T15:55:49Z</time>
      </trkpt>
      <trkpt lat="44.69523" lon="5.61266">
        <ele>972</ele>
        <time>2011-06-08T15:56:07Z</time>
      </trkpt>
      <trkpt lat="44.69613" lon="5.61316">
        <ele>978.9</ele>
        <time>2011-06-08T15:56:52Z</time>
      </trkpt>
      <trkpt lat="44.69629" lon="5.61339">
        <ele>980.1</ele>
        <time>2011-06-08T15:57:03Z</time>
      </trkpt>
      <trkpt lat="44.69663" lon="5.61461">
        <ele>987.3</ele>
        <time>2011-06-08T15:57:48Z</time>
      </trkpt>
      <trkpt lat="44.697" lon="5.61577">
        <ele>992.8</ele>
        <time>2011-06-08T15:58:29Z</time>
      </trkpt>
      <trkpt lat="44.69703" lon="5.6159">
        <ele>995.2</ele>
        <time>2011-06-08T15:58:44Z</time>
      </trkpt>
      <trkpt lat="44.69707" lon="5.61591">
        <ele>994.1</ele>
        <time>2011-06-08T15:59:43Z</time>
      </trkpt>
      <trkpt lat="44.69728" lon="5.61616">
        <ele>994.4</ele>
        <time>2011-06-08T15:59:56Z</time>
      </trkpt>
      <trkpt lat="44.69834" lon="5.61654">
        <ele>1003</ele>
        <time>2011-06-08T16:00:44Z</time>
      </trkpt>
      <trkpt lat="44.70062" lon="5.6169">
        <ele>1012.1</ele>
        <time>2011-06-08T16:02:25Z</time>
      </trkpt>
      <trkpt lat="44.70093" lon="5.61691">
        <ele>1019</ele>
        <time>2011-06-08T16:02:40Z</time>
      </trkpt>
      <trkpt lat="44.70112" lon="5.61709">
        <ele>1022.2</ele>
        <time>2011-06-08T16:02:51Z</time>
      </trkpt>
      <trkpt lat="44.70139" lon="5.61791">
        <ele>1027.4</ele>
        <time>2011-06-08T16:03:35Z</time>
      </trkpt>
      <trkpt lat="44.70134" lon="5.61787">
        <ele>1027.2</ele>
        <time>2011-06-08T16:03:56Z</time>
      </trkpt>
      <trkpt lat="44.70135" lon="5.61788">
        <ele>1026.5</ele>
        <time>2011-06-08T16:05:09Z</time>
      </trkpt>
      <trkpt lat="44.70147" lon="5.61809">
        <ele>1027.8</ele>
        <time>2011-06-08T16:05:19Z</time>
      </trkpt>
      <trkpt lat="44.70148" lon="5.61839">
        <ele>1029.4</ele>
        <time>2011-06-08T16:05:29Z</time>
      </trkpt>
      <trkpt lat="44.70108" lon="5.61833">
        <ele>1030.7</ele>
        <time>2011-06-08T16:06:02Z</time>
      </trkpt>
      <trkpt lat="44.70105" lon="5.61807">
        <ele>1035.2</ele>
        <time>2011-06-08T16:06:12Z</time>
      </trkpt>
      <trkpt lat="44.69982" lon="5.61788">
        <ele>1044</ele>
        <time>2011-06-08T16:07:14Z</time>
      </trkpt>
      <trkpt lat="44.6997" lon="5.61792">
        <ele>1044.7</ele>
        <time>2011-06-08T16:07:20Z</time>
      </trkpt>
      <trkpt lat="44.69712" lon="5.62057">
        <ele>1056</ele>
        <time>2011-06-08T16:10:02Z</time>
      </trkpt>
      <trkpt lat="44.69624" lon="5.62162">
        <ele>1075</ele>
        <time>2011-06-08T16:11:02Z</time>
      </trkpt>
      <trkpt lat="44.69604" lon="5.62207">
        <ele>1079</ele>
        <time>2011-06-08T16:11:21Z</time>
      </trkpt>
      <trkpt lat="44.69591" lon="5.62221">
        <ele>1078.7</ele>
        <time>2011-06-08T16:11:29Z</time>
      </trkpt>
      <trkpt lat="44.69562" lon="5.62273">
        <ele>1081.8</ele>
        <time>2011-06-08T16:11:52Z</time>
      </trkpt>
      <trkpt lat="44.69557" lon="5.62315">
        <ele>1085.3</ele>
        <time>2011-06-08T16:12:07Z</time>
      </trkpt>
      <trkpt lat="44.69545" lon="5.62337">
        <ele>1086.2</ele>
        <time>2011-06-08T16:12:17Z</time>
      </trkpt>
      <trkpt lat="44.69548" lon="5.6236">
        <ele>1087.7</ele>
        <time>2011-06-08T16:12:27Z</time>
      </trkpt>
      <trkpt lat="44.69572" lon="5.6237">
        <ele>1089.6</ele>
        <time>2011-06-08T16:12:40Z</time>
      </trkpt>
      <trkpt lat="44.69624" lon="5.62435">
        <ele>1095.5</ele>
        <time>2011-06-08T16:13:17Z</time>
      </trkpt>
      <trkpt lat="44.69628" lon="5.62445">
        <ele>1096.5</ele>
        <time>2011-06-08T16:13:21Z</time>
      </trkpt>
      <trkpt lat="44.69633" lon="5.62603">
        <ele>1102.6</ele>
        <time>2011-06-08T16:14:18Z</time>
      </trkpt>
      <trkpt lat="44.69637" lon="5.6264">
        <ele>1104.5</ele>
        <time>2011-06-08T16:14:32Z</time>
      </trkpt>
      <trkpt lat="44.69626" lon="5.62668">
        <ele>1105.1</ele>
        <time>2011-06-08T16:14:43Z</time>
      </trkpt>
      <trkpt lat="44.69594" lon="5.62702">
        <ele>1108.2</ele>
        <time>2011-06-08T16:15:03Z</time>
      </trkpt>
      <trkpt lat="44.69583" lon="5.62727">
        <ele>1108.8</ele>
        <time>2011-06-08T16:15:14Z</time>
      </trkpt>
      <trkpt lat="44.69555" lon="5.62862">
        <ele>1115.7</ele>
        <time>2011-06-08T16:16:04Z</time>
      </trkpt>
      <trkpt lat="44.69544" lon="5.62957">
        <ele>1119.7</ele>
        <time>2011-06-08T16:16:37Z</time>
      </trkpt>
      <trkpt lat="44.69554" lon="5.62994">
        <ele>1120.6</ele>
        <time>2011-06-08T16:16:51Z</time>
      </trkpt>
      <trkpt lat="44.69573" lon="5.63014">
        <ele>1122.5</ele>
        <time>2011-06-08T16:17:03Z</time>
      </trkpt>
      <trkpt lat="44.69588" lon="5.63053">
        <ele>1124.5</ele>
        <time>2011-06-08T16:17:18Z</time>
      </trkpt>
      <trkpt lat="44.69612" lon="5.63068">
        <ele>1127.3</ele>
        <time>2011-06-08T16:17:33Z</time>
      </trkpt>
      <trkpt lat="44.69633" lon="5.63065">
        <ele>1116.4</ele>
        <time>2011-06-08T16:17:45Z</time>
      </trkpt>
      <trkpt lat="44.69645" lon="5.63082">
        <ele>1102.1</ele>
        <time>2011-06-08T16:17:57Z</time>
      </trkpt>
      <trkpt lat="44.69639" lon="5.63124">
        <ele>1103.7</ele>
        <time>2011-06-08T16:18:15Z</time>
      </trkpt>
      <trkpt lat="44.69641" lon="5.63193">
        <ele>1107.3</ele>
        <time>2011-06-08T16:18:44Z</time>
      </trkpt>
      <trkpt lat="44.69626" lon="5.6328">
        <ele>1112.4</ele>
        <time>2011-06-08T16:19:18Z</time>
      </trkpt>
      <trkpt lat="44.69646" lon="5.63402">
        <ele>1118.5</ele>
        <time>2011-06-08T16:20:06Z</time>
      </trkpt>
      <trkpt lat="44.69637" lon="5.63446">
        <ele>1122</ele>
        <time>2011-06-08T16:20:25Z</time>
      </trkpt>
      <trkpt lat="44.69594" lon="5.63484">
        <ele>1125.8</ele>
        <time>2011-06-08T16:20:55Z</time>
      </trkpt>
      <trkpt lat="44.69573" lon="5.63506">
        <ele>1126.6</ele>
        <time>2011-06-08T16:21:09Z</time>
      </trkpt>
      <trkpt lat="44.69566" lon="5.63528">
        <ele>1126.5</ele>
        <time>2011-06-08T16:21:18Z</time>
      </trkpt>
      <trkpt lat="44.6957" lon="5.63547">
        <ele>1127.9</ele>
        <time>2011-06-08T16:21:25Z</time>
      </trkpt>
      <trkpt lat="44.69636" lon="5.6377">
        <ele>1130.1</ele>
        <time>2011-06-08T16:22:36Z</time>
      </trkpt>
      <trkpt lat="44.69641" lon="5.63764">
        <ele>1131.4</ele>
        <time>2011-06-08T16:22:45Z</time>
      </trkpt>
      <trkpt lat="44.69638" lon="5.63726">
        <ele>1134.4</ele>
        <time>2011-06-08T16:23:00Z</time>
      </trkpt>
      <trkpt lat="44.69635" lon="5.63707">
        <ele>1135.4</ele>
        <time>2011-06-08T16:23:07Z</time>
      </trkpt>
      <trkpt lat="44.69635" lon="5.63642">
        <ele>1137.1</ele>
        <time>2011-06-08T16:23:29Z</time>
      </trkpt>
      <trkpt lat="44.69622" lon="5.63605">
        <ele>1137.3</ele>
        <time>2011-06-08T16:24:06Z</time>
      </trkpt>
      <trkpt lat="44.69624" lon="5.63607">
        <ele>1137.9</ele>
        <time>2011-06-08T16:25:48Z</time>
      </trkpt>
    </trkseg>
  </trk>
</gpx>